Wetterdaten: Montag, 26.09.2022
Datum Zeit Temp. Aussen Temp. o. S. Temp +5cm Feuchte Auss Luftdruck Regen Sonnenschein Regendauer Solar Windben Empfang
26.09.2022 00:00 10,4 C 9,4 C 6,1 C 91 % 1011,9 hPa 0,0 l/m 0 min 0 min 0 W/m 0,0 km/h (0 Bft) 97,87 %
26.09.2022 00:02 10,4 C 9,4 C 6,1 C 91 % 1011,9 hPa 0,0 l/m 0 min 0 min 0 W/m 0,0 km/h (0 Bft) 9,52 %
26.09.2022 00:04 10,4 C 9,4 C 6,1 C 91 % 1011,9 hPa 0,0 l/m 0 min 0 min 0 W/m 6,4 km/h (2 Bft) 96,77 %
26.09.2022 00:08 10,4 C 10,0 C 6,7 C 91 % 1011,9 hPa 0,0 l/m 0 min 0 min 0 W/m 6,4 km/h (2 Bft) 95,12 %
26.09.2022 00:10 10,4 C 10,0 C 6,7 C 92 % 1011,8 hPa 0,0 l/m 0 min 0 min 0 W/m 0,0 km/h (0 Bft) 93,62 %
26.09.2022 00:12 10,4 C 10,0 C 6,7 C 92 % 1011,8 hPa 0,0 l/m 0 min 0 min 0 W/m 3,2 km/h (1 Bft) 95,74 %
26.09.2022 00:14 10,4 C 10,0 C 6,7 C 92 % 1011,9 hPa 0,0 l/m 0 min 0 min 0 W/m 3,2 km/h (1 Bft) 95,74 %
26.09.2022 00:16 10,4 C 10,0 C 6,7 C 92 % 1011,8 hPa 0,0 l/m 0 min 0 min 0 W/m 0,0 km/h (0 Bft) 95,74 %
26.09.2022 00:18 10,4 C 10,0 C 6,7 C 92 % 1011,8 hPa 0,0 l/m 0 min 0 min 0 W/m 3,2 km/h (1 Bft) 95,74 %
26.09.2022 00:20 10,4 C 10,0 C 6,7 C 92 % 1011,8 hPa 0,0 l/m 0 min 0 min 0 W/m 0,0 km/h (0 Bft) 97,83 %
26.09.2022 00:22 10,4 C 9,4 C 6,7 C 91 % 1011,8 hPa 0,0 l/m 0 min 0 min 0 W/m 0,0 km/h (0 Bft) 97,87 %
26.09.2022 00:24 10,4 C 9,4 C 6,1 C 91 % 1011,8 hPa 0,0 l/m 0 min 0 min 0 W/m 0,0 km/h (0 Bft) 97,87 %
26.09.2022 00:26 10,4 C 9,4 C 6,1 C 91 % 1011,7 hPa 0,0 l/m 0 min 0 min 0 W/m 0,0 km/h (0 Bft) 93,62 %
26.09.2022 00:28 10,4 C 9,4 C 6,1 C 91 % 1011,7 hPa 0,0 l/m 0 min 0 min 0 W/m 0,0 km/h (0 Bft) 97,87 %
26.09.2022 00:30 10,4 C 9,4 C 6,1 C 91 % 1011,7 hPa 0,0 l/m 0 min 0 min 0 W/m 0,0 km/h (0 Bft) 97,87 %
26.09.2022 00:32 10,3 C 9,4 C 6,1 C 91 % 1011,7 hPa 0,0 l/m 0 min 0 min 0 W/m 0,0 km/h (0 Bft) 100,00 %
26.09.2022 00:34 10,3 C 9,4 C 6,1 C 91 % 1011,6 hPa 0,0 l/m 0 min 0 min 0 W/m 3,2 km/h (1 Bft) 95,74 %
26.09.2022 00:36 10,3 C 9,4 C 6,1 C 91 % 1011,6 hPa 0,0 l/m 0 min 0 min 0 W/m 3,2 km/h (1 Bft) 100,00 %
26.09.2022 00:38 10,3 C 9,4 C 6,1 C 91 % 1011,6 hPa 0,0 l/m 0 min 0 min 0 W/m 6,4 km/h (2 Bft) 100,00 %
26.09.2022 00:40 10,3 C 9,4 C 6,7 C 91 % 1011,6 hPa 0,0 l/m 0 min 0 min 0 W/m 6,4 km/h (2 Bft) 100,00 %
26.09.2022 00:42 10,3 C 9,4 C 6,7 C 91 % 1011,5 hPa 0,0 l/m 0 min 0 min 0 W/m 3,2 km/h (1 Bft) 100,00 %
26.09.2022 00:44 10,3 C 9,4 C 6,7 C 91 % 1011,5 hPa 0,0 l/m 0 min 0 min 0 W/m 3,2 km/h (1 Bft) 100,00 %
26.09.2022 00:46 10,3 C 9,4 C 6,7 C 92 % 1011,4 hPa 0,0 l/m 0 min 0 min 0 W/m 3,2 km/h (1 Bft) 100,00 %
26.09.2022 00:48 10,3 C 9,4 C 6,7 C 92 % 1011,5 hPa 0,0 l/m 0 min 0 min 0 W/m 3,2 km/h (1 Bft) 100,00 %
26.09.2022 00:50 10,3 C 9,4 C 6,7 C 92 % 1011,5 hPa 0,0 l/m 0 min 0 min 0 W/m 3,2 km/h (1 Bft) 100,00 %
26.09.2022 00:52 10,3 C 9,4 C 6,7 C 92 % 1011,4 hPa 0,0 l/m 0 min 0 min 0 W/m 3,2 km/h (1 Bft) 100,00 %
26.09.2022 00:54 10,3 C 9,4 C 6,7 C 92 % 1011,4 hPa 0,0 l/m 0 min 0 min 0 W/m 3,2 km/h (1 Bft) 100,00 %
26.09.2022 00:56 10,3 C 9,4 C 6,7 C 92 % 1011,4 hPa 0,0 l/m 0 min 0 min 0 W/m 0,0 km/h (0 Bft) 100,00 %
26.09.2022 00:58 10,3 C 9,4 C 6,7 C 92 % 1011,4 hPa 0,0 l/m 0 min 0 min 0 W/m 0,0 km/h (0 Bft) 100,00 %
26.09.2022 01:00 10,3 C 9,4 C 6,7 C 92 % 1011,3 hPa 0,0 l/m 0 min 0 min 0 W/m 0,0 km/h (0 Bft) 100,00 %
26.09.2022 01:02 10,3 C 9,4 C 6,7 C 92 % 1011,3 hPa 0,0 l/m 0 min 0 min 0 W/m 0,0 km/h (0 Bft) 98,11 %
26.09.2022 01:04 10,3 C 9,4 C 6,7 C 92 % 1011,3 hPa 0,0 l/m 0 min 0 min 0 W/m 3,2 km/h (1 Bft) 100,00 %
26.09.2022 01:06 10,3 C 9,4 C 6,7 C 92 % 1011,4 hPa 0,0 l/m 0 min 0 min 0 W/m 3,2 km/h (1 Bft) 100,00 %
26.09.2022 01:08 10,3 C 9,4 C 6,7 C 92 % 1011,4 hPa 0,0 l/m 0 min 0 min 0 W/m 0,0 km/h (0 Bft) 100,00 %
26.09.2022 01:11 10,3 C 9,4 C 6,7 C 92 % 1011,4 hPa 0,0 l/m 0 min 0 min 0 W/m 0,0 km/h (0 Bft) 100,00 %
26.09.2022 01:12 10,4 C 9,4 C 6,7 C 92 % 1011,4 hPa 0,0 l/m 0 min 0 min 0 W/m 0,0 km/h (0 Bft) 100,00 %
26.09.2022 01:16 10,4 C 10,0 C 6,7 C 92 % 1011,4 hPa 0,0 l/m 0 min 0 min 0 W/m 0,0 km/h (0 Bft) 95,65 %
26.09.2022 01:18 10,4 C 10,0 C 6,7 C 92 % 1011,4 hPa 0,0 l/m 0 min 0 min 0 W/m 0,0 km/h (0 Bft) 100,00 %
26.09.2022 01:20 10,4 C 10,0 C 6,7 C 92 % 1011,3 hPa 0,0 l/m 0 min 0 min 0 W/m 3,2 km/h (1 Bft) 97,87 %
26.09.2022 01:22 10,4 C 10,0 C 6,7 C 92 % 1011,2 hPa 0,0 l/m 0 min 0 min 0 W/m 3,2 km/h (1 Bft) 97,87 %
26.09.2022 01:24 10,4 C 10,0 C 6,7 C 92 % 1011,2 hPa 0,0 l/m 0 min 0 min 0 W/m 3,2 km/h (1 Bft) 97,87 %
26.09.2022 01:26 10,4 C 9,4 C 6,7 C 92 % 1011,2 hPa 0,0 l/m 0 min 0 min 0 W/m 3,2 km/h (1 Bft) 95,65 %
26.09.2022 01:28 10,4 C 9,4 C 6,7 C 92 % 1011,2 hPa 0,0 l/m 0 min 0 min 0 W/m 6,4 km/h (2 Bft) 97,87 %
26.09.2022 01:30 10,4 C 9,4 C 6,7 C 92 % 1011,1 hPa 0,0 l/m 0 min 0 min 0 W/m 0,0 km/h (0 Bft) 97,87 %
26.09.2022 01:32 10,4 C 9,4 C 6,7 C 92 % 1011,1 hPa 0,0 l/m 0 min 0 min 0 W/m 0,0 km/h (0 Bft) 97,87 %
26.09.2022 01:34 10,4 C 9,4 C 6,7 C 92 % 1011,1 hPa 0,0 l/m 0 min 0 min 0 W/m 0,0 km/h (0 Bft) 95,74 %
26.09.2022 01:36 10,4 C 9,4 C 6,7 C 92 % 1011,0 hPa 0,0 l/m 0 min 0 min 0 W/m 0,0 km/h (0 Bft) 93,62 %
26.09.2022 01:38 10,4 C 9,4 C 6,7 C 92 % 1011,0 hPa 0,0 l/m 0 min 0 min 0 W/m 0,0 km/h (0 Bft) 97,83 %
26.09.2022 01:40 10,4 C 9,4 C 6,7 C 92 % 1011,0 hPa 0,0 l/m 0 min 0 min 0 W/m 0,0 km/h (0 Bft) 97,87 %
26.09.2022 01:42 10,4 C 9,4 C 6,7 C 92 % 1011,0 hPa 0,0 l/m 0 min 0 min 0 W/m 0,0 km/h (0 Bft) 95,74 %
26.09.2022 01:44 10,3 C 9,4 C 6,7 C 92 % 1011,0 hPa 0,0 l/m 0 min 0 min 0 W/m 0,0 km/h (0 Bft) 95,74 %
26.09.2022 01:46 10,3 C 9,4 C 6,7 C 92 % 1010,9 hPa 0,0 l/m 0 min 0 min 0 W/m 3,2 km/h (1 Bft) 95,74 %
26.09.2022 01:48 10,3 C 9,4 C 6,7 C 92 % 1010,9 hPa 0,0 l/m 0 min 0 min 0 W/m 3,2 km/h (1 Bft) 95,74 %
26.09.2022 01:50 10,3 C 9,4 C 6,7 C 92 % 1010,8 hPa 0,0 l/m 0 min 0 min 0 W/m 0,0 km/h (0 Bft) 91,30 %
26.09.2022 01:52 10,3 C 9,4 C 6,7 C 92 % 1010,8 hPa 0,0 l/m 0 min 0 min 0 W/m 6,4 km/h (2 Bft) 95,74 %
26.09.2022 01:54 10,3 C 9,4 C 6,7 C 92 % 1010,8 hPa 0,0 l/m 0 min 0 min 0 W/m 3,2 km/h (1 Bft) 95,74 %
26.09.2022 01:56 10,3 C 9,4 C 6,7 C 92 % 1010,8 hPa 0,0 l/m 0 min 0 min 0 W/m 6,4 km/h (2 Bft) 93,62 %
26.09.2022 01:58 10,3 C 9,4 C 6,7 C 92 % 1010,7 hPa 0,0 l/m 0 min 0 min 0 W/m 6,4 km/h (2 Bft) 97,87 %
26.09.2022 02:00 10,3 C 9,4 C 6,7 C 92 % 1010,7 hPa 0,0 l/m 0 min 0 min 0 W/m 6,4 km/h (2 Bft) 97,87 %
26.09.2022 02:02 10,3 C 10,0 C 6,7 C 92 % 1010,7 hPa 0,0 l/m 0 min 0 min 0 W/m 0,0 km/h (0 Bft) 97,87 %
26.09.2022 02:04 10,4 C 10,0 C 6,7 C 92 % 1010,7 hPa 0,0 l/m 0 min 0 min 0 W/m 0,0 km/h (0 Bft) 57,45 %
26.09.2022 02:06 10,4 C 10,0 C 6,7 C 92 % 1010,6 hPa 0,0 l/m 0 min 0 min 0 W/m 0,0 km/h (0 Bft) 97,87 %
26.09.2022 02:08 10,4 C 10,0 C 6,7 C 92 % 1010,6 hPa 0,0 l/m 0 min 0 min 0 W/m 0,0 km/h (0 Bft) 97,87 %
26.09.2022 02:10 10,4 C 10,0 C 6,7 C 92 % 1010,6 hPa 0,0 l/m 0 min 0 min 0 W/m 3,2 km/h (1 Bft) 97,87 %
26.09.2022 02:12 10,4 C 10,0 C 6,7 C 92 % 1010,5 hPa 0,0 l/m 0 min 0 min 0 W/m 0,0 km/h (0 Bft) 100,00 %
26.09.2022 02:14 10,4 C 10,0 C 6,7 C 92 % 1010,4 hPa 0,0 l/m 0 min 0 min 0 W/m 3,2 km/h (1 Bft) 100,00 %
26.09.2022 02:16 10,4 C 10,0 C 6,7 C 92 % 1010,4 hPa 0,0 l/m 0 min 0 min 0 W/m 3,2 km/h (1 Bft) 100,00 %
26.09.2022 02:18 10,4 C 10,0 C 6,7 C 92 % 1010,3 hPa 0,0 l/m 0 min 0 min 0 W/m 9,7 km/h (2 Bft) 100,00 %
26.09.2022 02:20 10,4 C 10,0 C 6,7 C 92 % 1010,3 hPa 0,0 l/m 0 min 0 min 0 W/m 9,7 km/h (2 Bft) 100,00 %
26.09.2022 02:22 10,4 C 10,0 C 7,2 C 92 % 1010,3 hPa 0,0 l/m 0 min 0 min 0 W/m 6,4 km/h (2 Bft) 100,00 %
26.09.2022 02:24 10,4 C 10,0 C 7,2 C 92 % 1010,2 hPa 0,0 l/m 0 min 0 min 0 W/m 9,7 km/h (2 Bft) 97,87 %
26.09.2022 02:26 10,5 C 10,0 C 7,2 C 92 % 1010,2 hPa 0,0 l/m 0 min 0 min 0 W/m 16,1 km/h (3 Bft) 97,83 %
26.09.2022 02:28 10,5 C 10,0 C 7,2 C 92 % 1010,2 hPa 0,0 l/m 0 min 0 min 0 W/m 12,9 km/h (3 Bft) 100,00 %
26.09.2022 02:30 10,5 C 10,0 C 7,2 C 92 % 1010,1 hPa 0,0 l/m 0 min 0 min 0 W/m 12,9 km/h (3 Bft) 100,00 %
26.09.2022 02:32 10,6 C 10,0 C 7,2 C 92 % 1010,1 hPa 0,0 l/m 0 min 0 min 0 W/m 12,9 km/h (3 Bft) 100,00 %
26.09.2022 02:34 10,6 C 10,0 C 7,2 C 92 % 1010,1 hPa 0,0 l/m 0 min 0 min 0 W/m 16,1 km/h (3 Bft) 97,87 %
26.09.2022 02:36 10,6 C 10,0 C 7,2 C 92 % 1010,0 hPa 0,0 l/m 0 min 0 min 0 W/m 9,7 km/h (2 Bft) 97,87 %
26.09.2022 02:38 10,6 C 10,0 C 7,2 C 92 % 1010,0 hPa 0,0 l/m 0 min 0 min 0 W/m 12,9 km/h (3 Bft) 100,00 %
26.09.2022 02:40 10,6 C 10,0 C 7,2 C 92 % 1010,0 hPa 0,0 l/m 0 min 0 min 0 W/m 12,9 km/h (3 Bft) 100,00 %
26.09.2022 02:42 10,7 C 10,0 C 7,2 C 92 % 1009,9 hPa 0,0 l/m 0 min 0 min 0 W/m 12,9 km/h (3 Bft) 100,00 %
26.09.2022 02:44 10,7 C 10,0 C 7,2 C 92 % 1009,9 hPa 0,0 l/m 0 min 0 min 0 W/m 9,7 km/h (2 Bft) 100,00 %
26.09.2022 02:46 10,7 C 10,0 C 7,2 C 92 % 1009,9 hPa 0,0 l/m 0 min 0 min 0 W/m 12,9 km/h (3 Bft) 100,00 %
26.09.2022 02:48 10,7 C 10,6 C 7,2 C 92 % 1009,8 hPa 0,0 l/m 0 min 0 min 0 W/m 9,7 km/h (2 Bft) 100,00 %
26.09.2022 02:50 10,7 C 10,6 C 7,2 C 92 % 1009,8 hPa 0,0 l/m 0 min 0 min 0 W/m 6,4 km/h (2 Bft) 100,00 %
26.09.2022 02:52 10,8 C 10,6 C 7,2 C 92 % 1009,8 hPa 0,0 l/m 0 min 0 min 0 W/m 12,9 km/h (3 Bft) 100,00 %
26.09.2022 02:54 10,8 C 10,6 C 7,2 C 92 % 1009,7 hPa 0,0 l/m 0 min 0 min 0 W/m 12,9 km/h (3 Bft) 97,87 %
26.09.2022 02:56 10,8 C 10,6 C 7,2 C 92 % 1009,7 hPa 0,0 l/m 0 min 0 min 0 W/m 6,4 km/h (2 Bft) 97,87 %
26.09.2022 02:58 10,8 C 10,6 C 7,2 C 92 % 1009,7 hPa 0,0 l/m 0 min 0 min 0 W/m 3,2 km/h (1 Bft) 95,74 %
26.09.2022 03:00 10,9 C 10,6 C 7,2 C 92 % 1009,8 hPa 0,0 l/m 0 min 0 min 0 W/m 6,4 km/h (2 Bft) 97,87 %
26.09.2022 03:02 10,9 C 10,6 C 7,2 C 92 % 1009,7 hPa 0,0 l/m 0 min 0 min 0 W/m 12,9 km/h (3 Bft) 97,87 %
26.09.2022 03:04 10,9 C 10,6 C 7,2 C 92 % 1009,7 hPa 0,0 l/m 0 min 0 min 0 W/m 9,7 km/h (2 Bft) 97,87 %
26.09.2022 03:06 10,9 C 10,6 C 7,2 C 92 % 1009,7 hPa 0,0 l/m 0 min 0 min 0 W/m 9,7 km/h (2 Bft) 97,87 %
26.09.2022 03:08 10,9 C 10,6 C 7,2 C 92 % 1009,6 hPa 0,0 l/m 0 min 0 min 0 W/m 9,7 km/h (2 Bft) 97,87 %
26.09.2022 03:10 10,9 C 10,6 C 7,2 C 92 % 1009,6 hPa 0,0 l/m 0 min 0 min 0 W/m 9,7 km/h (2 Bft) 97,87 %
26.09.2022 03:12 10,9 C 10,6 C 7,2 C 92 % 1009,6 hPa 0,0 l/m 0 min 0 min 0 W/m 6,4 km/h (2 Bft) 97,87 %
26.09.2022 03:14 10,9 C 10,6 C 7,2 C 92 % 1009,6 hPa 0,0 l/m 0 min 0 min 0 W/m 6,4 km/h (2 Bft) 97,83 %
26.09.2022 03:16 11,0 C 10,6 C 7,2 C 92 % 1009,6 hPa 0,0 l/m 0 min 0 min 0 W/m 9,7 km/h (2 Bft) 95,74 %
26.09.2022 03:18 11,0 C 10,6 C 7,2 C 92 % 1009,5 hPa 0,0 l/m 0 min 0 min 0 W/m 9,7 km/h (2 Bft) 95,74 %
26.09.2022 03:20 11,1 C 10,6 C 7,2 C 92 % 1009,5 hPa 0,0 l/m 0 min 0 min 0 W/m 6,4 km/h (2 Bft) 97,87 %
26.09.2022 03:22 11,1 C 10,6 C 7,2 C 92 % 1009,4 hPa 0,0 l/m 0 min 0 min 0 W/m 16,1 km/h (3 Bft) 97,87 %
26.09.2022 03:24 11,1 C 10,6 C 7,2 C 92 % 1009,4 hPa 0,0 l/m 0 min 0 min 0 W/m 25,7 km/h (4 Bft) 97,83 %
26.09.2022 03:26 11,1 C 10,6 C 7,2 C 92 % 1009,4 hPa 0,0 l/m 0 min 0 min 0 W/m 16,1 km/h (3 Bft) 97,87 %
26.09.2022 03:28 11,1 C 10,6 C 7,2 C 92 % 1009,3 hPa 0,0 l/m 0 min 0 min 0 W/m 19,3 km/h (3 Bft) 95,74 %
26.09.2022 03:30 11,1 C 10,6 C 7,2 C 92 % 1009,4 hPa 0,0 l/m 0 min 0 min 0 W/m 12,9 km/h (3 Bft) 95,74 %
26.09.2022 03:32 11,1 C 10,6 C 7,2 C 92 % 1009,4 hPa 0,0 l/m 0 min 0 min 0 W/m 16,1 km/h (3 Bft) 91,67 %
26.09.2022 03:34 11,1 C 10,6 C 7,2 C 92 % 1009,3 hPa 0,0 l/m 0 min 0 min 0 W/m 19,3 km/h (3 Bft) 95,74 %
26.09.2022 03:36 11,1 C 10,6 C 7,2 C 92 % 1009,3 hPa 0,0 l/m 0 min 0 min 0 W/m 16,1 km/h (3 Bft) 95,65 %
26.09.2022 03:38 11,1 C 10,6 C 7,2 C 92 % 1009,3 hPa 0,0 l/m 0 min 0 min 0 W/m 9,7 km/h (2 Bft) 95,74 %
26.09.2022 03:40 11,1 C 10,6 C 7,2 C 92 % 1009,2 hPa 0,0 l/m 0 min 0 min 0 W/m 12,9 km/h (3 Bft) 93,62 %
26.09.2022 03:42 11,2 C 10,6 C 7,2 C 92 % 1009,2 hPa 0,0 l/m 0 min 0 min 0 W/m 22,5 km/h (4 Bft) 93,62 %
26.09.2022 03:44 11,2 C 10,6 C 7,2 C 92 % 1009,2 hPa 0,0 l/m 0 min 0 min 0 W/m 16,1 km/h (3 Bft) 95,74 %
26.09.2022 03:46 11,2 C 10,6 C 7,2 C 92 % 1009,2 hPa 0,0 l/m 0 min 0 min 0 W/m 12,9 km/h (3 Bft) 95,74 %
26.09.2022 03:48 11,2 C 10,6 C 7,2 C 92 % 1009,2 hPa 0,0 l/m 0 min 0 min 0 W/m 12,9 km/h (3 Bft) 95,65 %
26.09.2022 03:50 11,2 C 10,6 C 7,2 C 92 % 1009,3 hPa 0,0 l/m 0 min 0 min 0 W/m 9,7 km/h (2 Bft) 91,49 %
26.09.2022 03:52 11,2 C 10,6 C 7,8 C 92 % 1009,4 hPa 0,0 l/m 0 min 0 min 0 W/m 12,9 km/h (3 Bft) 95,74 %
26.09.2022 03:54 11,2 C 10,6 C 7,2 C 92 % 1009,3 hPa 0,0 l/m 0 min 0 min 0 W/m 12,9 km/h (3 Bft) 93,62 %
26.09.2022 03:56 11,2 C 10,6 C 7,8 C 92 % 1009,2 hPa 0,0 l/m 0 min 0 min 0 W/m 19,3 km/h (3 Bft) 95,74 %
26.09.2022 03:58 11,2 C 10,6 C 7,2 C 92 % 1009,2 hPa 0,0 l/m 0 min 0 min 0 W/m 12,9 km/h (3 Bft) 97,87 %
26.09.2022 04:00 11,2 C 10,6 C 7,2 C 92 % 1009,1 hPa 0,0 l/m 0 min 0 min 0 W/m 16,1 km/h (3 Bft) 95,65 %
26.09.2022 04:02 11,2 C 10,6 C 7,2 C 92 % 1008,9 hPa 0,0 l/m 0 min 0 min 0 W/m 16,1 km/h (3 Bft) 100,00 %
26.09.2022 04:04 11,2 C 10,6 C 7,2 C 92 % 1008,9 hPa 0,0 l/m 0 min 0 min 0 W/m 16,1 km/h (3 Bft) 100,00 %
26.09.2022 04:06 11,2 C 10,6 C 7,2 C 92 % 1008,8 hPa 0,0 l/m 0 min 0 min 0 W/m 12,9 km/h (3 Bft) 97,87 %
26.09.2022 04:08 11,2 C 10,6 C 7,2 C 92 % 1008,8 hPa 0,0 l/m 0 min 0 min 0 W/m 9,7 km/h (2 Bft) 95,74 %
26.09.2022 04:10 11,2 C 10,6 C 7,8 C 92 % 1008,8 hPa 0,0 l/m 0 min 0 min 0 W/m 9,7 km/h (2 Bft) 95,74 %
26.09.2022 04:12 11,2 C 10,6 C 7,8 C 92 % 1008,8 hPa 0,0 l/m 0 min 0 min 0 W/m 16,1 km/h (3 Bft) 97,83 %
26.09.2022 04:14 11,2 C 10,6 C 7,2 C 92 % 1008,7 hPa 0,0 l/m 0 min 0 min 0 W/m 16,1 km/h (3 Bft) 97,87 %
26.09.2022 04:16 11,3 C 10,6 C 7,2 C 92 % 1008,6 hPa 0,0 l/m 0 min 0 min 0 W/m 19,3 km/h (3 Bft) 97,87 %
26.09.2022 04:18 11,2 C 10,6 C 7,2 C 92 % 1008,7 hPa 0,0 l/m 0 min 0 min 0 W/m 12,9 km/h (3 Bft) 97,87 %
26.09.2022 04:20 11,3 C 10,6 C 7,8 C 92 % 1008,7 hPa 0,0 l/m 0 min 0 min 0 W/m 22,5 km/h (4 Bft) 97,87 %
26.09.2022 04:22 11,3 C 10,6 C 7,8 C 92 % 1008,6 hPa 0,0 l/m 0 min 0 min 0 W/m 12,9 km/h (3 Bft) 97,87 %
26.09.2022 04:24 11,3 C 10,6 C 7,8 C 92 % 1008,6 hPa 0,0 l/m 0 min 0 min 0 W/m 16,1 km/h (3 Bft) 97,83 %
26.09.2022 04:26 11,3 C 10,6 C 7,8 C 92 % 1008,5 hPa 0,0 l/m 0 min 0 min 0 W/m 16,1 km/h (3 Bft) 100,00 %
26.09.2022 04:28 11,3 C 10,6 C 7,8 C 92 % 1008,5 hPa 0,0 l/m 0 min 0 min 0 W/m 12,9 km/h (3 Bft) 100,00 %
26.09.2022 04:30 11,3 C 10,6 C 7,8 C 92 % 1008,4 hPa 0,0 l/m 0 min 0 min 0 W/m 16,1 km/h (3 Bft) 100,00 %
26.09.2022 04:32 11,3 C 10,6 C 7,8 C 92 % 1008,4 hPa 0,0 l/m 0 min 0 min 0 W/m 12,9 km/h (3 Bft) 100,00 %
26.09.2022 04:34 11,3 C 10,6 C 7,8 C 92 % 1008,4 hPa 0,0 l/m 0 min 0 min 0 W/m 9,7 km/h (2 Bft) 100,00 %
26.09.2022 04:36 11,3 C 10,6 C 7,8 C 92 % 1008,3 hPa 0,0 l/m 0 min 0 min 0 W/m 12,9 km/h (3 Bft) 100,00 %
26.09.2022 04:38 11,3 C 10,6 C 7,8 C 92 % 1008,3 hPa 0,0 l/m 0 min 0 min 0 W/m 16,1 km/h (3 Bft) 95,74 %
26.09.2022 04:40 11,3 C 10,6 C 7,8 C 92 % 1008,3 hPa 0,0 l/m 0 min 0 min 0 W/m 12,9 km/h (3 Bft) 100,00 %
26.09.2022 04:42 11,3 C 10,6 C 7,8 C 92 % 1008,2 hPa 0,0 l/m 0 min 0 min 0 W/m 16,1 km/h (3 Bft) 100,00 %
26.09.2022 04:44 11,3 C 10,6 C 7,8 C 92 % 1008,2 hPa 0,0 l/m 0 min 0 min 0 W/m 12,9 km/h (3 Bft) 100,00 %
26.09.2022 04:46 11,3 C 10,6 C 7,8 C 92 % 1008,2 hPa 0,0 l/m 0 min 0 min 0 W/m 12,9 km/h (3 Bft) 100,00 %
26.09.2022 04:48 11,3 C 10,6 C 7,8 C 92 % 1008,1 hPa 0,0 l/m 0 min 0 min 0 W/m 9,7 km/h (2 Bft) 100,00 %
26.09.2022 04:50 11,3 C 10,6 C 7,8 C 92 % 1008,1 hPa 0,0 l/m 0 min 0 min 0 W/m 16,1 km/h (3 Bft) 100,00 %
26.09.2022 04:52 11,3 C 10,6 C 7,8 C 92 % 1008,1 hPa 0,0 l/m 0 min 0 min 0 W/m 16,1 km/h (3 Bft) 100,00 %
26.09.2022 04:54 11,3 C 10,6 C 7,8 C 92 % 1008,0 hPa 0,0 l/m 0 min 0 min 0 W/m 16,1 km/h (3 Bft) 100,00 %
26.09.2022 04:56 11,3 C 10,6 C 7,8 C 92 % 1008,0 hPa 0,0 l/m 0 min 0 min 0 W/m 16,1 km/h (3 Bft) 100,00 %
26.09.2022 04:58 11,3 C 10,6 C 7,8 C 92 % 1007,9 hPa 0,0 l/m 0 min 0 min 0 W/m 22,5 km/h (4 Bft) 97,87 %
26.09.2022 05:00 11,3 C 10,6 C 7,8 C 92 % 1007,9 hPa 0,0 l/m 0 min 0 min 0 W/m 19,3 km/h (3 Bft) 100,00 %
26.09.2022 05:02 11,3 C 10,6 C 7,8 C 92 % 1007,8 hPa 0,0 l/m 0 min 0 min 0 W/m 16,1 km/h (3 Bft) 97,83 %
26.09.2022 05:04 11,3 C 10,6 C 7,8 C 92 % 1007,8 hPa 0,0 l/m 0 min 0 min 0 W/m 19,3 km/h (3 Bft) 100,00 %
26.09.2022 05:06 11,3 C 10,6 C 7,8 C 92 % 1007,7 hPa 0,0 l/m 0 min 0 min 0 W/m 19,3 km/h (3 Bft) 100,00 %
26.09.2022 05:08 11,3 C 10,6 C 7,8 C 92 % 1007,7 hPa 0,0 l/m 0 min 0 min 0 W/m 16,1 km/h (3 Bft) 100,00 %
26.09.2022 05:10 11,3 C 10,6 C 7,8 C 92 % 1007,6 hPa 0,0 l/m 0 min 0 min 0 W/m 19,3 km/h (3 Bft) 97,87 %
26.09.2022 05:12 11,3 C 10,6 C 7,8 C 92 % 1007,7 hPa 0,0 l/m 0 min 0 min 0 W/m 22,5 km/h (4 Bft) 97,87 %
26.09.2022 05:14 11,3 C 10,6 C 7,8 C 92 % 1007,6 hPa 0,0 l/m 0 min 0 min 0 W/m 19,3 km/h (3 Bft) 100,00 %
26.09.2022 05:16 11,3 C 10,6 C 7,8 C 92 % 1007,5 hPa 0,0 l/m 0 min 0 min 0 W/m 12,9 km/h (3 Bft) 95,74 %
26.09.2022 05:18 11,3 C 10,6 C 7,8 C 92 % 1007,6 hPa 0,0 l/m 0 min 0 min 0 W/m 22,5 km/h (4 Bft) 100,00 %
26.09.2022 05:20 11,3 C 10,6 C 7,8 C 92 % 1007,5 hPa 0,0 l/m 0 min 0 min 0 W/m 19,3 km/h (3 Bft) 97,87 %
26.09.2022 05:22 11,3 C 10,6 C 7,8 C 92 % 1007,5 hPa 0,0 l/m 0 min 0 min 0 W/m 35,4 km/h (5 Bft) 97,87 %
26.09.2022 05:24 11,3 C 10,6 C 7,8 C 92 % 1007,4 hPa 0,0 l/m 0 min 0 min 0 W/m 16,1 km/h (3 Bft) 97,83 %
26.09.2022 05:26 11,3 C 10,6 C 7,8 C 92 % 1007,3 hPa 0,0 l/m 0 min 0 min 0 W/m 32,2 km/h (5 Bft) 97,96 %
26.09.2022 05:28 11,3 C 10,6 C 7,8 C 92 % 1007,3 hPa 0,0 l/m 0 min 0 min 0 W/m 16,1 km/h (3 Bft) 95,74 %
26.09.2022 05:30 11,3 C 10,6 C 7,2 C 92 % 1007,3 hPa 0,0 l/m 0 min 0 min 0 W/m 22,5 km/h (4 Bft) 97,87 %
26.09.2022 05:32 11,3 C 10,6 C 7,2 C 92 % 1007,2 hPa 0,0 l/m 0 min 0 min 0 W/m 16,1 km/h (3 Bft) 97,87 %
26.09.2022 05:34 11,3 C 10,6 C 7,2 C 92 % 1007,2 hPa 0,0 l/m 0 min 0 min 0 W/m 16,1 km/h (3 Bft) 97,87 %
26.09.2022 05:36 11,3 C 10,6 C 7,2 C 92 % 1007,2 hPa 0,0 l/m 0 min 0 min 0 W/m 22,5 km/h (4 Bft) 97,87 %
26.09.2022 05:38 11,2 C 10,6 C 7,2 C 92 % 1007,2 hPa 0,0 l/m 0 min 0 min 0 W/m 16,1 km/h (3 Bft) 97,83 %
26.09.2022 05:40 11,2 C 10,6 C 7,2 C 92 % 1007,2 hPa 0,0 l/m 0 min 0 min 0 W/m 25,7 km/h (4 Bft) 97,87 %
26.09.2022 05:42 11,2 C 10,6 C 7,2 C 92 % 1007,2 hPa 0,0 l/m 0 min 0 min 0 W/m 16,1 km/h (3 Bft) 97,87 %
26.09.2022 05:44 11,2 C 10,6 C 7,2 C 92 % 1007,2 hPa 0,0 l/m 0 min 0 min 0 W/m 16,1 km/h (3 Bft) 97,87 %
26.09.2022 05:46 11,2 C 10,6 C 7,2 C 92 % 1007,1 hPa 0,0 l/m 0 min 0 min 0 W/m 12,9 km/h (3 Bft) 97,87 %
26.09.2022 05:48 11,2 C 10,6 C 7,2 C 91 % 1007,1 hPa 0,0 l/m 0 min 0 min 0 W/m 19,3 km/h (3 Bft) 97,87 %
26.09.2022 05:50 11,2 C 10,6 C 7,2 C 92 % 1007,2 hPa 0,0 l/m 0 min 0 min 0 W/m 16,1 km/h (3 Bft) 97,83 %
26.09.2022 05:52 11,2 C 10,6 C 7,2 C 92 % 1007,1 hPa 0,0 l/m 0 min 0 min 0 W/m 22,5 km/h (4 Bft) 100,00 %
26.09.2022 05:54 11,2 C 10,6 C 7,2 C 92 % 1007,1 hPa 0,0 l/m 0 min 0 min 0 W/m 16,1 km/h (3 Bft) 95,74 %
26.09.2022 05:56 11,2 C 10,6 C 7,2 C 92 % 1007,1 hPa 0,0 l/m 0 min 0 min 0 W/m 19,3 km/h (3 Bft) 97,87 %
26.09.2022 05:58 11,2 C 10,6 C 7,2 C 92 % 1007,0 hPa 0,0 l/m 0 min 0 min 0 W/m 22,5 km/h (4 Bft) 97,87 %
26.09.2022 06:00 11,2 C 10,6 C 7,2 C 92 % 1007,0 hPa 0,0 l/m 0 min 0 min 0 W/m 12,9 km/h (3 Bft) 97,87 %
26.09.2022 06:02 11,2 C 10,6 C 7,2 C 92 % 1006,9 hPa 0,0 l/m 0 min 0 min 0 W/m 16,1 km/h (3 Bft) 97,83 %
26.09.2022 06:04 11,2 C 10,6 C 7,2 C 91 % 1006,9 hPa 0,0 l/m 0 min 0 min 0 W/m 19,3 km/h (3 Bft) 97,87 %
26.09.2022 06:08 11,2 C 10,6 C 7,2 C 91 % 1006,8 hPa 0,0 l/m 0 min 0 min 0 W/m 16,1 km/h (3 Bft) 96,81 %
26.09.2022 06:10 11,2 C 10,6 C 7,2 C 91 % 1006,8 hPa 0,0 l/m 0 min 0 min 0 W/m 12,9 km/h (3 Bft) 100,00 %
26.09.2022 06:12 11,2 C 10,6 C 7,2 C 91 % 1006,7 hPa 0,0 l/m 0 min 0 min 0 W/m 22,5 km/h (4 Bft) 93,48 %
26.09.2022 06:14 11,2 C 10,6 C 7,2 C 91 % 1006,7 hPa 0,0 l/m 0 min 0 min 0 W/m 19,3 km/h (3 Bft) 97,87 %
26.09.2022 06:16 11,2 C 10,6 C 7,2 C 91 % 1006,7 hPa 0,0 l/m 0 min 0 min 0 W/m 12,9 km/h (3 Bft) 97,87 %
26.09.2022 06:18 11,2 C 10,6 C 7,2 C 91 % 1006,7 hPa 0,0 l/m 0 min 0 min 0 W/m 16,1 km/h (3 Bft) 95,74 %
26.09.2022 06:20 11,2 C 10,6 C 7,2 C 91 % 1006,6 hPa 0,0 l/m 0 min 0 min 0 W/m 12,9 km/h (3 Bft) 97,87 %
26.09.2022 06:22 11,2 C 10,6 C 7,2 C 91 % 1006,6 hPa 0,0 l/m 0 min 0 min 0 W/m 16,1 km/h (3 Bft) 95,74 %
26.09.2022 06:24 11,1 C 10,6 C 7,2 C 91 % 1006,6 hPa 0,0 l/m 0 min 0 min 0 W/m 9,7 km/h (2 Bft) 93,48 %
26.09.2022 06:26 11,1 C 10,6 C 7,2 C 91 % 1006,5 hPa 0,0 l/m 0 min 0 min 0 W/m 22,5 km/h (4 Bft) 95,74 %
26.09.2022 06:28 11,1 C 10,6 C 7,2 C 91 % 1006,5 hPa 0,0 l/m 0 min 0 min 0 W/m 16,1 km/h (3 Bft) 93,62 %
26.09.2022 06:30 11,1 C 10,6 C 7,2 C 91 % 1006,5 hPa 0,0 l/m 0 min 0 min 0 W/m 12,9 km/h (3 Bft) 93,62 %
26.09.2022 06:32 11,1 C 10,6 C 7,2 C 91 % 1006,4 hPa 0,0 l/m 0 min 0 min 0 W/m 16,1 km/h (3 Bft) 93,62 %
26.09.2022 06:34 11,1 C 10,6 C 7,2 C 91 % 1006,3 hPa 0,0 l/m 0 min 0 min 0 W/m 9,7 km/h (2 Bft) 95,74 %
26.09.2022 06:36 11,1 C 10,6 C 7,2 C 90 % 1006,3 hPa 0,0 l/m 0 min 0 min 0 W/m 29,0 km/h (5 Bft) 95,74 %
26.09.2022 06:38 11,1 C 10,6 C 7,2 C 90 % 1006,3 hPa 0,0 l/m 0 min 0 min 0 W/m 16,1 km/h (3 Bft) 95,65 %
26.09.2022 06:40 11,1 C 10,6 C 7,2 C 90 % 1006,3 hPa 0,0 l/m 0 min 0 min 0 W/m 12,9 km/h (3 Bft) 95,74 %
26.09.2022 06:42 11,1 C 10,6 C 7,2 C 90 % 1006,3 hPa 0,0 l/m 0 min 0 min 0 W/m 6,4 km/h (2 Bft) 97,87 %
26.09.2022 06:44 11,1 C 10,6 C 7,2 C 90 % 1006,2 hPa 0,0 l/m 0 min 0 min 0 W/m 12,9 km/h (3 Bft) 97,87 %
26.09.2022 06:46 11,1 C 10,6 C 7,2 C 90 % 1006,2 hPa 0,0 l/m 0 min 0 min 0 W/m 12,9 km/h (3 Bft) 97,87 %
26.09.2022 06:48 11,1 C 10,6 C 7,2 C 90 % 1006,2 hPa 0,0 l/m 0 min 0 min 0 W/m 22,5 km/h (4 Bft) 97,87 %
26.09.2022 06:50 11,1 C 10,6 C 7,2 C 90 % 1006,1 hPa 0,0 l/m 0 min 0 min 0 W/m 16,1 km/h (3 Bft) 97,83 %
26.09.2022 06:52 11,1 C 10,6 C 7,2 C 90 % 1006,1 hPa 0,0 l/m 0 min 0 min 0 W/m 19,3 km/h (3 Bft) 97,87 %
26.09.2022 06:54 11,1 C 10,6 C 7,2 C 90 % 1006,1 hPa 0,0 l/m 0 min 0 min 0 W/m 19,3 km/h (3 Bft) 98,00 %
26.09.2022 06:56 11,1 C 10,6 C 7,2 C 90 % 1006,0 hPa 0,0 l/m 0 min 0 min 0 W/m 22,5 km/h (4 Bft) 95,74 %
26.09.2022 06:58 11,1 C 10,6 C 7,2 C 90 % 1006,0 hPa 0,0 l/m 0 min 0 min 0 W/m 19,3 km/h (3 Bft) 93,48 %
26.09.2022 07:00 11,1 C 10,6 C 7,2 C 90 % 1006,0 hPa 0,0 l/m 0 min 0 min 0 W/m 22,5 km/h (4 Bft) 97,87 %
26.09.2022 07:02 11,0 C 10,6 C 7,2 C 90 % 1005,9 hPa 0,0 l/m 0 min 0 min 0 W/m 16,1 km/h (3 Bft) 97,87 %
26.09.2022 07:04 11,0 C 10,6 C 7,2 C 90 % 1005,9 hPa 0,0 l/m 0 min 0 min 0 W/m 16,1 km/h (3 Bft) 95,83 %
26.09.2022 07:06 11,0 C 10,6 C 7,2 C 90 % 1005,8 hPa 0,0 l/m 0 min 0 min 0 W/m 12,9 km/h (3 Bft) 95,74 %
26.09.2022 07:08 11,0 C 10,6 C 7,2 C 90 % 1005,8 hPa 0,0 l/m 0 min 0 min 0 W/m 16,1 km/h (3 Bft) 100,00 %
26.09.2022 07:10 11,0 C 10,6 C 7,2 C 90 % 1005,7 hPa 0,0 l/m 0 min 0 min 0 W/m 12,9 km/h (3 Bft) 100,00 %
26.09.2022 07:12 11,0 C 10,6 C 7,2 C 90 % 1005,7 hPa 0,0 l/m 0 min 0 min 0 W/m 6,4 km/h (2 Bft) 97,87 %
26.09.2022 07:14 11,0 C 10,6 C 7,2 C 90 % 1005,8 hPa 0,0 l/m 0 min 0 min 0 W/m 12,9 km/h (3 Bft) 97,87 %
26.09.2022 07:16 11,0 C 10,6 C 7,2 C 90 % 1005,6 hPa 0,0 l/m 0 min 0 min 0 W/m 9,7 km/h (2 Bft) 97,87 %
26.09.2022 07:18 11,0 C 10,6 C 7,2 C 89 % 1005,7 hPa 0,0 l/m 0 min 0 min 0 W/m 9,7 km/h (2 Bft) 97,87 %
26.09.2022 07:20 10,9 C 10,6 C 7,2 C 89 % 1005,6 hPa 0,0 l/m 0 min 0 min 0 W/m 9,7 km/h (2 Bft) 97,87 %
26.09.2022 07:22 10,9 C 10,6 C 7,2 C 89 % 1005,6 hPa 0,0 l/m 0 min 0 min 0 W/m 22,5 km/h (4 Bft) 95,65 %
26.09.2022 07:24 10,9 C 10,6 C 7,2 C 89 % 1005,5 hPa 0,0 l/m 0 min 0 min 0 W/m 16,1 km/h (3 Bft) 97,87 %
26.09.2022 07:26 10,9 C 10,6 C 7,2 C 89 % 1005,5 hPa 0,0 l/m 0 min 0 min 2 W/m 22,5 km/h (4 Bft) 97,87 %
26.09.2022 07:28 10,9 C 10,6 C 7,2 C 89 % 1005,5 hPa 0,0 l/m 0 min 0 min 5 W/m 12,9 km/h (3 Bft) 97,87 %
26.09.2022 07:30 10,9 C 10,6 C 7,2 C 89 % 1005,5 hPa 0,0 l/m 0 min 0 min 5 W/m 16,1 km/h (3 Bft) 97,87 %
26.09.2022 07:32 10,9 C 10,6 C 7,2 C 89 % 1005,4 hPa 0,0 l/m 0 min 0 min 0 W/m 16,1 km/h (3 Bft) 97,92 %
26.09.2022 07:34 10,9 C 10,6 C 7,2 C 89 % 1005,4 hPa 0,0 l/m 0 min 0 min 0 W/m 12,9 km/h (3 Bft) 97,87 %
26.09.2022 07:36 10,9 C 10,6 C 7,2 C 89 % 1005,4 hPa 0,0 l/m 0 min 0 min 0 W/m 16,1 km/h (3 Bft) 95,74 %
26.09.2022 07:38 10,9 C 10,6 C 7,2 C 89 % 1005,4 hPa 0,0 l/m 0 min 0 min 1 W/m 6,4 km/h (2 Bft) 95,74 %
26.09.2022 07:40 10,9 C 10,6 C 7,2 C 89 % 1005,5 hPa 0,0 l/m 0 min 0 min 5 W/m 19,3 km/h (3 Bft) 97,87 %
26.09.2022 07:42 10,9 C 10,6 C 7,2 C 89 % 1005,4 hPa 0,0 l/m 0 min 0 min 5 W/m 19,3 km/h (3 Bft) 100,00 %
26.09.2022 07:44 10,9 C 10,6 C 7,2 C 89 % 1005,3 hPa 0,0 l/m 0 min 0 min 6 W/m 25,7 km/h (4 Bft) 97,87 %
26.09.2022 07:46 10,9 C 10,6 C 7,2 C 89 % 1005,3 hPa 0,0 l/m 0 min 0 min 7 W/m 6,4 km/h (2 Bft) 97,87 %
26.09.2022 07:48 10,9 C 10,6 C 7,2 C 89 % 1005,3 hPa 0,0 l/m 0 min 0 min 9 W/m 25,7 km/h (4 Bft) 97,87 %
26.09.2022 07:50 10,9 C 10,6 C 7,2 C 88 % 1005,3 hPa 0,0 l/m 0 min 0 min 11 W/m 9,7 km/h (2 Bft) 100,00 %
26.09.2022 07:52 10,9 C 10,6 C 7,2 C 88 % 1005,2 hPa 0,0 l/m 0 min 0 min 13 W/m 12,9 km/h (3 Bft) 100,00 %
26.09.2022 07:54 10,9 C 10,6 C 7,2 C 88 % 1005,2 hPa 0,0 l/m 0 min 0 min 16 W/m 19,3 km/h (3 Bft) 100,00 %
26.09.2022 07:56 10,9 C 10,6 C 7,2 C 88 % 1005,2 hPa 0,0 l/m 0 min 0 min 19 W/m 16,1 km/h (3 Bft) 100,00 %
26.09.2022 07:58 10,9 C 10,6 C 7,2 C 88 % 1005,2 hPa 0,0 l/m 0 min 0 min 21 W/m 16,1 km/h (3 Bft) 100,00 %
26.09.2022 08:00 10,9 C 10,6 C 7,2 C 88 % 1005,2 hPa 0,0 l/m 0 min 0 min 24 W/m 19,3 km/h (3 Bft) 100,00 %
26.09.2022 08:02 10,9 C 10,6 C 7,2 C 88 % 1005,1 hPa 0,0 l/m 0 min 0 min 27 W/m 16,1 km/h (3 Bft) 97,92 %
26.09.2022 08:04 10,9 C 10,6 C 7,2 C 88 % 1005,1 hPa 0,0 l/m 0 min 0 min 31 W/m 12,9 km/h (3 Bft) 100,00 %
26.09.2022 08:06 11,0 C 10,6 C 7,2 C 88 % 1005,1 hPa 0,0 l/m 0 min 0 min 32 W/m 9,7 km/h (2 Bft) 98,31 %
26.09.2022 08:08 11,0 C 10,6 C 7,2 C 88 % 1005,1 hPa 0,0 l/m 0 min 0 min 36 W/m 16,1 km/h (3 Bft) 100,00 %
26.09.2022 08:10 11,0 C 10,6 C 7,2 C 87 % 1005,0 hPa 0,0 l/m 0 min 0 min 39 W/m 19,3 km/h (3 Bft) 100,00 %
26.09.2022 08:12 11,0 C 10,6 C 7,2 C 88 % 1005,0 hPa 0,0 l/m 0 min 0 min 40 W/m 29,0 km/h (5 Bft) 97,83 %
26.09.2022 08:14 11,1 C 10,6 C 7,2 C 87 % 1004,9 hPa 0,0 l/m 0 min 0 min 41 W/m 25,7 km/h (4 Bft) 100,00 %
26.09.2022 08:16 11,1 C 10,6 C 7,2 C 87 % 1004,9 hPa 0,0 l/m 0 min 0 min 42 W/m 9,7 km/h (2 Bft) 97,87 %
26.09.2022 08:18 11,1 C 10,6 C 7,8 C 87 % 1004,8 hPa 0,0 l/m 0 min 0 min 42 W/m 16,1 km/h (3 Bft) 100,00 %
26.09.2022 08:20 11,1 C 10,6 C 7,8 C 87 % 1004,8 hPa 0,0 l/m 0 min 0 min 42 W/m 12,9 km/h (3 Bft) 100,00 %
26.09.2022 08:22 11,1 C 10,6 C 7,8 C 87 % 1004,8 hPa 0,0 l/m 0 min 0 min 43 W/m 19,3 km/h (3 Bft) 100,00 %
26.09.2022 08:24 11,1 C 10,6 C 7,8 C 87 % 1004,8 hPa 0,0 l/m 0 min 0 min 44 W/m 16,1 km/h (3 Bft) 97,83 %
26.09.2022 08:26 11,2 C 10,6 C 7,8 C 87 % 1004,8 hPa 0,0 l/m 0 min 0 min 44 W/m 22,5 km/h (4 Bft) 100,00 %
26.09.2022 08:28 11,2 C 10,6 C 7,8 C 86 % 1004,7 hPa 0,0 l/m 0 min 0 min 43 W/m 12,9 km/h (3 Bft) 100,00 %
26.09.2022 08:30 11,2 C 10,6 C 7,8 C 86 % 1004,6 hPa 0,0 l/m 0 min 0 min 40 W/m 19,3 km/h (3 Bft) 100,00 %
26.09.2022 08:32 11,2 C 10,6 C 7,8 C 86 % 1004,6 hPa 0,0 l/m 0 min 0 min 37 W/m 22,5 km/h (4 Bft) 100,00 %
26.09.2022 08:34 11,2 C 10,6 C 7,8 C 86 % 1004,6 hPa 0,0 l/m 0 min 0 min 34 W/m 29,0 km/h (5 Bft) 100,00 %
26.09.2022 08:36 11,3 C 10,6 C 7,8 C 86 % 1004,5 hPa 0,0 l/m 0 min 0 min 34 W/m 19,3 km/h (3 Bft) 100,00 %
26.09.2022 08:38 11,3 C 10,6 C 7,2 C 86 % 1004,5 hPa 0,0 l/m 0 min 0 min 35 W/m 19,3 km/h (3 Bft) 97,87 %
26.09.2022 08:40 11,3 C 10,6 C 7,2 C 86 % 1004,5 hPa 0,0 l/m 0 min 0 min 36 W/m 22,5 km/h (4 Bft) 97,87 %
26.09.2022 08:42 11,3 C 10,6 C 7,2 C 86 % 1004,4 hPa 0,0 l/m 0 min 0 min 35 W/m 19,3 km/h (3 Bft) 100,00 %
26.09.2022 08:44 11,3 C 10,6 C 7,2 C 86 % 1004,4 hPa 0,0 l/m 0 min 0 min 33 W/m 22,5 km/h (4 Bft) 100,00 %
26.09.2022 08:46 11,3 C 10,6 C 7,2 C 86 % 1004,4 hPa 0,0 l/m 0 min 0 min 32 W/m 25,7 km/h (4 Bft) 93,62 %
26.09.2022 08:48 11,3 C 10,6 C 7,2 C 86 % 1004,4 hPa 0,0 l/m 0 min 0 min 32 W/m 16,1 km/h (3 Bft) 97,83 %
26.09.2022 08:50 11,3 C 10,6 C 7,8 C 86 % 1004,4 hPa 0,0 l/m 0 min 0 min 33 W/m 16,1 km/h (3 Bft) 93,62 %
26.09.2022 08:52 11,3 C 10,6 C 7,8 C 86 % 1004,4 hPa 0,0 l/m 0 min 0 min 35 W/m 19,3 km/h (3 Bft) 97,87 %
26.09.2022 08:54 11,3 C 10,6 C 7,8 C 86 % 1004,4 hPa 0,0 l/m 0 min 0 min 35 W/m 32,2 km/h (5 Bft) 95,74 %
26.09.2022 08:56 11,3 C 10,6 C 7,8 C 86 % 1004,3 hPa 0,0 l/m 0 min 0 min 35 W/m 16,1 km/h (3 Bft) 95,74 %
26.09.2022 08:58 11,3 C 11,1 C 7,8 C 86 % 1004,3 hPa 0,0 l/m 0 min 0 min 39 W/m 25,7 km/h (4 Bft) 95,74 %
26.09.2022 09:00 11,4 C 11,1 C 7,8 C 86 % 1004,3 hPa 0,0 l/m 0 min 0 min 39 W/m 25,7 km/h (4 Bft) 97,83 %
26.09.2022 09:02 11,4 C 11,1 C 7,8 C 86 % 1004,3 hPa 0,0 l/m 0 min 0 min 39 W/m 12,9 km/h (3 Bft) 93,62 %
26.09.2022 09:04 11,4 C 11,1 C 7,8 C 86 % 1004,3 hPa 0,0 l/m 0 min 0 min 37 W/m 25,7 km/h (4 Bft) 95,74 %
26.09.2022 09:06 11,4 C 11,1 C 7,8 C 86 % 1004,2 hPa 0,0 l/m 0 min 2 min 37 W/m 19,3 km/h (3 Bft) 91,49 %
26.09.2022 09:08 11,4 C 11,1 C 7,8 C 86 % 1004,2 hPa 0,0 l/m 0 min 0 min 35 W/m 16,1 km/h (3 Bft) 93,62 %
26.09.2022 09:10 11,4 C 11,1 C 7,2 C 86 % 1004,2 hPa 0,0 l/m 0 min 2 min 31 W/m 19,3 km/h (3 Bft) 93,62 %
26.09.2022 09:12 11,4 C 10,6 C 7,2 C 87 % 1004,2 hPa 0,0 l/m 0 min 2 min 27 W/m 22,5 km/h (4 Bft) 89,13 %
26.09.2022 09:14 11,4 C 10,6 C 6,7 C 87 % 1004,2 hPa 0,0 l/m 0 min 2 min 26 W/m 19,3 km/h (3 Bft) 93,62 %
26.09.2022 09:16 11,4 C 10,6 C 6,7 C 87 % 1004,2 hPa 0,0 l/m 0 min 2 min 26 W/m 22,5 km/h (4 Bft) 89,36 %
26.09.2022 09:18 11,4 C 10,6 C 6,7 C 87 % 1004,2 hPa 0,0 l/m 0 min 2 min 27 W/m 12,9 km/h (3 Bft) 93,62 %
26.09.2022 09:20 11,4 C 10,6 C 6,1 C 87 % 1004,1 hPa 0,0 l/m 0 min 2 min 29 W/m 25,7 km/h (4 Bft) 93,62 %
26.09.2022 09:22 11,4 C 10,6 C 6,1 C 87 % 1004,1 hPa 0,2 l/m 0 min 2 min 30 W/m 19,3 km/h (3 Bft) 93,62 %
26.09.2022 09:24 11,4 C 10,6 C 6,1 C 88 % 1004,0 hPa 0,0 l/m 0 min 2 min 32 W/m 6,4 km/h (2 Bft) 92,45 %
26.09.2022 09:26 11,4 C 10,6 C 6,1 C 88 % 1003,9 hPa 0,0 l/m 0 min 2 min 35 W/m 22,5 km/h (4 Bft) 93,62 %
26.09.2022 09:28 11,3 C 10,6 C 6,1 C 88 % 1003,8 hPa 0,0 l/m 0 min 2 min 39 W/m 22,5 km/h (4 Bft) 92,50 %
26.09.2022 09:30 11,3 C 10,6 C 6,1 C 88 % 1003,8 hPa 0,0 l/m 0 min 2 min 43 W/m 25,7 km/h (4 Bft) 93,62 %
26.09.2022 09:32 11,3 C 10,6 C 6,1 C 89 % 1003,8 hPa 0,0 l/m 0 min 2 min 46 W/m 25,7 km/h (4 Bft) 93,62 %
26.09.2022 09:34 11,3 C 10,6 C 6,1 C 89 % 1003,8 hPa 0,0 l/m 0 min 2 min 49 W/m 35,4 km/h (5 Bft) 93,62 %
26.09.2022 09:36 11,3 C 10,6 C 6,1 C 89 % 1003,9 hPa 0,0 l/m 0 min 2 min 48 W/m 19,3 km/h (3 Bft) 94,83 %
26.09.2022 09:38 11,2 C 10,6 C 6,1 C 89 % 1003,8 hPa 0,0 l/m 0 min 2 min 46 W/m 25,7 km/h (4 Bft) 97,87 %
26.09.2022 09:40 11,2 C 10,6 C 6,1 C 89 % 1003,9 hPa 0,0 l/m 0 min 2 min 45 W/m 29,0 km/h (5 Bft) 97,14 %
26.09.2022 09:42 11,2 C 10,6 C 6,1 C 89 % 1003,9 hPa 0,0 l/m 0 min 2 min 43 W/m 32,2 km/h (5 Bft) 95,74 %
26.09.2022 09:44 11,2 C 10,6 C 6,1 C 89 % 1003,9 hPa 0,0 l/m 0 min 2 min 40 W/m 29,0 km/h (5 Bft) 97,87 %
26.09.2022 09:46 11,2 C 10,6 C 6,1 C 90 % 1003,9 hPa 0,0 l/m 0 min 2 min 36 W/m 29,0 km/h (5 Bft) 97,87 %
26.09.2022 09:48 11,1 C 10,6 C 6,1 C 90 % 1003,8 hPa 0,0 l/m 0 min 2 min 34 W/m 16,1 km/h (3 Bft) 97,83 %
26.09.2022 09:50 11,1 C 10,6 C 6,1 C 90 % 1003,8 hPa 0,0 l/m 0 min 2 min 31 W/m 25,7 km/h (4 Bft) 97,87 %
26.09.2022 09:52 11,1 C 10,6 C 6,1 C 90 % 1003,7 hPa 0,0 l/m 0 min 2 min 31 W/m 22,5 km/h (4 Bft) 100,00 %
26.09.2022 09:54 11,1 C 10,6 C 6,1 C 90 % 1003,7 hPa 0,0 l/m 0 min 2 min 39 W/m 29,0 km/h (5 Bft) 100,00 %
26.09.2022 09:56 11,1 C 10,6 C 6,1 C 90 % 1003,7 hPa 0,0 l/m 0 min 2 min 48 W/m 32,2 km/h (5 Bft) 100,00 %
26.09.2022 09:58 11,1 C 10,6 C 6,1 C 90 % 1003,7 hPa 0,0 l/m 0 min 2 min 65 W/m 25,7 km/h (4 Bft) 100,00 %
26.09.2022 10:00 11,1 C 10,6 C 6,1 C 90 % 1003,6 hPa 0,0 l/m 0 min 2 min 49 W/m 22,5 km/h (4 Bft) 100,00 %
26.09.2022 10:02 11,1 C 10,6 C 6,1 C 90 % 1003,7 hPa 0,0 l/m 0 min 2 min 38 W/m 22,5 km/h (4 Bft) 98,00 %
26.09.2022 10:04 11,1 C 10,6 C 6,1 C 90 % 1003,7 hPa 0,2 l/m 0 min 2 min 38 W/m 19,3 km/h (3 Bft) 100,00 %
26.09.2022 10:06 11,1 C 10,6 C 6,1 C 90 % 1003,6 hPa 0,0 l/m 0 min 2 min 38 W/m 29,0 km/h (5 Bft) 100,00 %
26.09.2022 10:08 11,1 C 10,6 C 6,1 C 90 % 1003,5 hPa 0,0 l/m 0 min 2 min 38 W/m 32,2 km/h (5 Bft) 100,00 %
26.09.2022 10:10 11,1 C 10,6 C 6,1 C 90 % 1003,5 hPa 0,0 l/m 0 min 2 min 41 W/m 29,0 km/h (5 Bft) 100,00 %
26.09.2022 10:12 11,1 C 10,6 C 6,1 C 90 % 1003,4 hPa 0,0 l/m 0 min 0 min 41 W/m 16,1 km/h (3 Bft) 100,00 %
26.09.2022 10:14 11,1 C 10,6 C 6,1 C 90 % 1003,4 hPa 0,0 l/m 0 min 2 min 38 W/m 19,3 km/h (3 Bft) 100,00 %
26.09.2022 10:16 11,1 C 10,6 C 6,1 C 90 % 1003,4 hPa 0,0 l/m 0 min 2 min 33 W/m 22,5 km/h (4 Bft) 100,00 %
26.09.2022 10:18 11,0 C 10,6 C 6,1 C 90 % 1003,4 hPa 0,0 l/m 0 min 0 min 32 W/m 16,1 km/h (3 Bft) 100,00 %
26.09.2022 10:20 11,1 C 10,6 C 6,1 C 90 % 1003,4 hPa 0,0 l/m 0 min 0 min 26 W/m 25,7 km/h (4 Bft) 100,00 %
26.09.2022 10:22 11,0 C 10,6 C 6,1 C 90 % 1003,4 hPa 0,0 l/m 0 min 2 min 24 W/m 22,5 km/h (4 Bft) 100,00 %
26.09.2022 10:24 11,0 C 10,6 C 6,1 C 90 % 1003,3 hPa 0,0 l/m 0 min 0 min 33 W/m 16,1 km/h (3 Bft) 97,87 %
26.09.2022 10:26 11,1 C 10,6 C 6,1 C 90 % 1003,4 hPa 0,0 l/m 0 min 0 min 44 W/m 19,3 km/h (3 Bft) 100,00 %
26.09.2022 10:28 11,1 C 10,6 C 6,1 C 90 % 1003,3 hPa 0,0 l/m 0 min 0 min 51 W/m 32,2 km/h (5 Bft) 100,00 %
26.09.2022 10:30 11,1 C 10,6 C 6,1 C 90 % 1003,3 hPa 0,0 l/m 0 min 0 min 52 W/m 25,7 km/h (4 Bft) 97,87 %
26.09.2022 10:32 11,1 C 10,6 C 6,1 C 90 % 1003,2 hPa 0,0 l/m 0 min 2 min 32 W/m 25,7 km/h (4 Bft) 100,00 %
26.09.2022 10:34 11,1 C 10,6 C 6,1 C 90 % 1003,3 hPa 0,0 l/m 0 min 2 min 23 W/m 22,5 km/h (4 Bft) 100,00 %
26.09.2022 10:36 11,1 C 10,6 C 6,1 C 90 % 1003,3 hPa 0,0 l/m 0 min 2 min 22 W/m 32,2 km/h (5 Bft) 100,00 %
26.09.2022 10:38 11,1 C 10,6 C 6,1 C 90 % 1003,3 hPa 0,0 l/m 0 min 2 min 25 W/m 25,7 km/h (4 Bft) 100,00 %
26.09.2022 10:40 11,1 C 10,6 C 6,1 C 90 % 1003,3 hPa 0,0 l/m 0 min 2 min 25 W/m 22,5 km/h (4 Bft) 100,00 %
26.09.2022 10:42 11,1 C 10,6 C 6,1 C 90 % 1003,3 hPa 0,0 l/m 0 min 0 min 32 W/m 22,5 km/h (4 Bft) 100,00 %
26.09.2022 10:44 11,1 C 10,6 C 6,1 C 90 % 1003,3 hPa 0,0 l/m 0 min 2 min 43 W/m 25,7 km/h (4 Bft) 100,00 %
26.09.2022 10:46 11,1 C 10,6 C 6,1 C 90 % 1003,3 hPa 0,0 l/m 0 min 2 min 38 W/m 22,5 km/h (4 Bft) 97,83 %
26.09.2022 10:48 11,1 C 10,6 C 6,1 C 90 % 1003,3 hPa 0,0 l/m 0 min 2 min 34 W/m 22,5 km/h (4 Bft) 100,00 %
26.09.2022 10:50 11,2 C 10,6 C 6,1 C 90 % 1003,3 hPa 0,0 l/m 0 min 2 min 42 W/m 19,3 km/h (3 Bft) 97,87 %
26.09.2022 10:52 11,2 C 10,6 C 6,1 C 90 % 1003,2 hPa 0,0 l/m 0 min 2 min 42 W/m 16,1 km/h (3 Bft) 100,00 %
26.09.2022 10:54 11,2 C 10,6 C 6,1 C 90 % 1003,2 hPa 0,0 l/m 0 min 2 min 45 W/m 19,3 km/h (3 Bft) 100,00 %
26.09.2022 10:56 11,2 C 10,6 C 6,1 C 90 % 1003,1 hPa 0,0 l/m 0 min 2 min 57 W/m 6,4 km/h (2 Bft) 97,87 %
26.09.2022 10:58 11,2 C 10,6 C 6,1 C 90 % 1003,1 hPa 0,0 l/m 0 min 2 min 62 W/m 19,3 km/h (3 Bft) 97,83 %
26.09.2022 11:00 11,2 C 10,6 C 6,1 C 90 % 1003,1 hPa 0,0 l/m 0 min 2 min 83 W/m 19,3 km/h (3 Bft) 97,87 %
26.09.2022 11:02 11,2 C 10,6 C 6,1 C 90 % 1003,1 hPa 0,0 l/m 0 min 2 min 100 W/m 32,2 km/h (5 Bft) 97,87 %
26.09.2022 11:04 11,3 C 10,6 C 6,7 C 90 % 1003,1 hPa 0,0 l/m 0 min 2 min 77 W/m 35,4 km/h (5 Bft) 97,87 %
26.09.2022 11:06 11,3 C 10,6 C 6,1 C 90 % 1003,1 hPa 0,0 l/m 0 min 2 min 61 W/m 32,2 km/h (5 Bft) 97,87 %
26.09.2022 11:08 11,3 C 10,6 C 6,1 C 90 % 1003,1 hPa 0,0 l/m 0 min 2 min 56 W/m 19,3 km/h (3 Bft) 97,87 %
26.09.2022 11:10 11,3 C 10,6 C 6,7 C 90 % 1003,0 hPa 0,0 l/m 0 min 2 min 70 W/m 29,0 km/h (5 Bft) 97,83 %
26.09.2022 11:12 11,3 C 10,6 C 6,7 C 90 % 1003,0 hPa 0,0 l/m 0 min 2 min 89 W/m 22,5 km/h (4 Bft) 95,74 %
26.09.2022 11:14 11,3 C 10,6 C 6,7 C 90 % 1003,0 hPa 0,0 l/m 0 min 2 min 91 W/m 16,1 km/h (3 Bft) 97,87 %
26.09.2022 11:16 11,3 C 10,6 C 6,7 C 90 % 1002,9 hPa 0,0 l/m 0 min 2 min 95 W/m 16,1 km/h (3 Bft) 97,87 %
26.09.2022 11:18 11,4 C 11,1 C 6,7 C 91 % 1002,9 hPa 0,2 l/m 0 min 2 min 101 W/m 12,9 km/h (3 Bft) 95,74 %
26.09.2022 11:20 11,4 C 11,1 C 6,7 C 91 % 1002,9 hPa 0,0 l/m 0 min 2 min 104 W/m 22,5 km/h (4 Bft) 97,87 %
26.09.2022 11:22 11,4 C 11,1 C 6,7 C 91 % 1002,9 hPa 0,0 l/m 0 min 2 min 106 W/m 16,1 km/h (3 Bft) 95,65 %
26.09.2022 11:24 11,4 C 11,1 C 6,7 C 91 % 1002,8 hPa 0,0 l/m 0 min 2 min 105 W/m 16,1 km/h (3 Bft) 95,74 %
26.09.2022 11:26 11,4 C 11,1 C 6,7 C 91 % 1002,9 hPa 0,0 l/m 0 min 2 min 99 W/m 16,1 km/h (3 Bft) 100,00 %
26.09.2022 11:28 11,4 C 11,1 C 6,7 C 91 % 1002,7 hPa 0,0 l/m 0 min 2 min 87 W/m 22,5 km/h (4 Bft) 97,87 %
26.09.2022 11:30 11,4 C 11,1 C 6,7 C 91 % 1002,7 hPa 0,0 l/m 0 min 2 min 73 W/m 16,1 km/h (3 Bft) 97,87 %
26.09.2022 11:32 11,4 C 11,1 C 6,7 C 91 % 1002,7 hPa 0,0 l/m 0 min 2 min 66 W/m 19,3 km/h (3 Bft) 100,00 %
26.09.2022 11:34 11,4 C 11,1 C 6,7 C 91 % 1002,6 hPa 0,0 l/m 0 min 2 min 65 W/m 16,1 km/h (3 Bft) 100,00 %
26.09.2022 11:36 11,4 C 11,1 C 6,7 C 91 % 1002,6 hPa 0,0 l/m 0 min 2 min 67 W/m 25,7 km/h (4 Bft) 100,00 %
26.09.2022 11:38 11,4 C 11,1 C 6,7 C 91 % 1002,6 hPa 0,0 l/m 0 min 2 min 71 W/m 19,3 km/h (3 Bft) 97,87 %
26.09.2022 11:40 11,4 C 11,1 C 6,7 C 91 % 1002,6 hPa 0,0 l/m 0 min 2 min 76 W/m 12,9 km/h (3 Bft) 97,87 %
26.09.2022 11:42 11,4 C 11,1 C 6,7 C 91 % 1002,6 hPa 0,0 l/m 0 min 2 min 83 W/m 16,1 km/h (3 Bft) 97,87 %
26.09.2022 11:44 11,5 C 11,1 C 6,7 C 91 % 1002,6 hPa 0,0 l/m 0 min 0 min 95 W/m 19,3 km/h (3 Bft) 97,87 %
26.09.2022 11:46 11,5 C 11,1 C 6,7 C 91 % 1002,5 hPa 0,0 l/m 0 min 0 min 110 W/m 19,3 km/h (3 Bft) 97,83 %
26.09.2022 11:48 11,5 C 11,1 C 6,7 C 91 % 1002,5 hPa 0,0 l/m 0 min 0 min 128 W/m 19,3 km/h (3 Bft) 95,74 %
26.09.2022 11:50 11,6 C 11,1 C 6,7 C 92 % 1002,5 hPa 0,0 l/m 0 min 0 min 142 W/m 22,5 km/h (4 Bft) 97,87 %
26.09.2022 11:52 11,6 C 11,7 C 7,2 C 91 % 1002,4 hPa 0,0 l/m 0 min 0 min 146 W/m 12,9 km/h (3 Bft) 95,74 %
26.09.2022 11:54 11,6 C 11,7 C 7,2 C 92 % 1002,4 hPa 0,0 l/m 0 min 0 min 147 W/m 16,1 km/h (3 Bft) 95,74 %
26.09.2022 11:56 11,6 C 11,7 C 7,2 C 92 % 1002,4 hPa 0,0 l/m 0 min 0 min 150 W/m 16,1 km/h (3 Bft) 95,65 %
26.09.2022 11:58 11,7 C 11,7 C 7,2 C 91 % 1002,3 hPa 0,0 l/m 0 min 0 min 149 W/m 25,7 km/h (4 Bft) 93,62 %
26.09.2022 12:00 11,8 C 11,7 C 7,2 C 91 % 1002,3 hPa 0,0 l/m 0 min 0 min 141 W/m 16,1 km/h (3 Bft) 93,62 %
26.09.2022 12:02 11,8 C 11,7 C 7,2 C 92 % 1002,2 hPa 0,0 l/m 0 min 0 min 129 W/m 45,1 km/h (6 Bft) 95,74 %
26.09.2022 12:04 11,8 C 11,7 C 7,2 C 91 % 1002,1 hPa 0,0 l/m 0 min 0 min 118 W/m 12,9 km/h (3 Bft) 95,74 %
26.09.2022 12:08 11,9 C 11,7 C 7,2 C 91 % 1002,1 hPa 0,0 l/m 0 min 0 min 115 W/m 25,7 km/h (4 Bft) 95,70 %
26.09.2022 12:10 11,9 C 11,7 C 7,2 C 91 % 1002,0 hPa 0,0 l/m 0 min 0 min 120 W/m 12,9 km/h (3 Bft) 95,74 %
26.09.2022 12:12 12,0 C 11,7 C 7,2 C 91 % 1002,0 hPa 0,0 l/m 0 min 0 min 125 W/m 12,9 km/h (3 Bft) 95,74 %
26.09.2022 12:14 12,1 C 11,7 C 7,2 C 91 % 1002,0 hPa 0,0 l/m 0 min 0 min 125 W/m 12,9 km/h (3 Bft) 93,62 %
26.09.2022 12:16 12,1 C 12,2 C 7,2 C 91 % 1002,0 hPa 0,0 l/m 0 min 0 min 122 W/m 22,5 km/h (4 Bft) 93,62 %
26.09.2022 12:18 12,1 C 12,2 C 7,2 C 91 % 1001,9 hPa 0,0 l/m 0 min 0 min 124 W/m 22,5 km/h (4 Bft) 93,62 %
26.09.2022 12:20 12,1 C 12,2 C 7,2 C 91 % 1001,9 hPa 0,0 l/m 0 min 0 min 127 W/m 19,3 km/h (3 Bft) 95,65 %
26.09.2022 12:22 12,2 C 12,2 C 7,2 C 91 % 1001,9 hPa 0,0 l/m 0 min 0 min 132 W/m 22,5 km/h (4 Bft) 95,74 %
26.09.2022 12:24 12,2 C 12,2 C 7,2 C 90 % 1001,9 hPa 0,0 l/m 0 min 0 min 140 W/m 16,1 km/h (3 Bft) 95,74 %
26.09.2022 12:26 12,2 C 12,2 C 7,2 C 90 % 1001,9 hPa 0,0 l/m 0 min 0 min 150 W/m 12,9 km/h (3 Bft) 97,87 %
26.09.2022 12:28 12,3 C 12,2 C 7,2 C 90 % 1001,9 hPa 0,0 l/m 0 min 0 min 151 W/m 22,5 km/h (4 Bft) 97,87 %
26.09.2022 12:30 12,3 C 12,2 C 7,2 C 90 % 1001,8 hPa 0,0 l/m 0 min 0 min 148 W/m 19,3 km/h (3 Bft) 97,87 %
26.09.2022 12:32 12,3 C 12,2 C 7,8 C 90 % 1001,8 hPa 0,0 l/m 0 min 0 min 155 W/m 19,3 km/h (3 Bft) 97,87 %
26.09.2022 12:34 12,4 C 12,2 C 7,8 C 90 % 1001,8 hPa 0,0 l/m 0 min 0 min 172 W/m 16,1 km/h (3 Bft) 95,74 %
26.09.2022 12:36 12,4 C 12,8 C 7,8 C 89 % 1001,7 hPa 0,0 l/m 0 min 0 min 183 W/m 32,2 km/h (5 Bft) 97,87 %
26.09.2022 12:38 12,5 C 12,8 C 7,8 C 89 % 1001,7 hPa 0,0 l/m 0 min 0 min 193 W/m 25,7 km/h (4 Bft) 95,74 %
26.09.2022 12:40 12,6 C 12,8 C 7,8 C 89 % 1001,8 hPa 0,0 l/m 0 min 0 min 197 W/m 19,3 km/h (3 Bft) 97,87 %
26.09.2022 12:42 12,6 C 12,8 C 7,8 C 89 % 1001,7 hPa 0,0 l/m 0 min 0 min 188 W/m 12,9 km/h (3 Bft) 100,00 %
26.09.2022 12:44 12,6 C 12,8 C 7,8 C 89 % 1001,7 hPa 0,0 l/m 0 min 0 min 180 W/m 19,3 km/h (3 Bft) 97,83 %
26.09.2022 12:46 12,7 C 12,8 C 7,8 C 88 % 1001,7 hPa 0,0 l/m 0 min 0 min 178 W/m 16,1 km/h (3 Bft) 100,00 %
26.09.2022 12:48 12,7 C 12,8 C 7,8 C 88 % 1001,5 hPa 0,0 l/m 0 min 0 min 178 W/m 16,1 km/h (3 Bft) 97,92 %
26.09.2022 12:50 12,8 C 12,8 C 7,8 C 88 % 1001,4 hPa 0,0 l/m 0 min 0 min 174 W/m 12,9 km/h (3 Bft) 97,87 %
26.09.2022 12:52 12,8 C 12,8 C 7,8 C 88 % 1001,4 hPa 0,0 l/m 0 min 0 min 166 W/m 16,1 km/h (3 Bft) 97,92 %
26.09.2022 12:54 12,8 C 12,8 C 7,8 C 88 % 1001,4 hPa 0,0 l/m 0 min 0 min 157 W/m 25,7 km/h (4 Bft) 95,65 %
26.09.2022 12:56 12,9 C 12,8 C 7,8 C 87 % 1001,4 hPa 0,0 l/m 0 min 0 min 158 W/m 35,4 km/h (5 Bft) 95,74 %
26.09.2022 12:58 12,9 C 12,8 C 7,8 C 87 % 1001,3 hPa 0,0 l/m 0 min 0 min 156 W/m 29,0 km/h (5 Bft) 97,87 %
26.09.2022 13:00 13,0 C 12,8 C 7,8 C 87 % 1001,3 hPa 0,0 l/m 0 min 0 min 155 W/m 16,1 km/h (3 Bft) 95,74 %
26.09.2022 13:02 13,0 C 12,8 C 7,8 C 87 % 1001,2 hPa 0,0 l/m 0 min 0 min 155 W/m 29,0 km/h (5 Bft) 97,92 %
26.09.2022 13:04 13,0 C 12,8 C 7,8 C 86 % 1001,3 hPa 0,0 l/m 0 min 0 min 154 W/m 19,3 km/h (3 Bft) 97,87 %
26.09.2022 13:06 13,1 C 12,8 C 7,8 C 86 % 1001,2 hPa 0,0 l/m 0 min 0 min 156 W/m 25,7 km/h (4 Bft) 97,83 %
26.09.2022 13:08 13,1 C 12,8 C 7,8 C 86 % 1001,2 hPa 0,0 l/m 0 min 0 min 162 W/m 32,2 km/h (5 Bft) 97,87 %
26.09.2022 13:10 13,1 C 12,8 C 7,8 C 86 % 1001,2 hPa 0,0 l/m 0 min 0 min 163 W/m 22,5 km/h (4 Bft) 97,87 %
26.09.2022 13:12 13,1 C 12,8 C 7,8 C 86 % 1001,2 hPa 0,0 l/m 0 min 0 min 164 W/m 22,5 km/h (4 Bft) 95,74 %
26.09.2022 13:14 13,2 C 12,8 C 7,8 C 85 % 1001,1 hPa 0,0 l/m 0 min 0 min 178 W/m 19,3 km/h (3 Bft) 97,87 %
26.09.2022 13:16 13,2 C 13,3 C 7,8 C 85 % 1001,0 hPa 0,0 l/m 0 min 0 min 191 W/m 32,2 km/h (5 Bft) 97,87 %
26.09.2022 13:18 13,2 C 13,3 C 7,8 C 85 % 1001,0 hPa 0,0 l/m 0 min 0 min 210 W/m 29,0 km/h (5 Bft) 97,83 %
26.09.2022 13:20 13,3 C 13,3 C 7,8 C 85 % 1001,0 hPa 0,0 l/m 0 min 0 min 229 W/m 12,9 km/h (3 Bft) 97,87 %
26.09.2022 13:22 13,3 C 13,3 C 8,3 C 85 % 1001,0 hPa 0,0 l/m 0 min 0 min 245 W/m 19,3 km/h (3 Bft) 97,87 %
26.09.2022 13:24 13,4 C 13,9 C 8,3 C 85 % 1001,0 hPa 0,0 l/m 0 min 0 min 259 W/m 29,0 km/h (5 Bft) 100,00 %
26.09.2022 13:26 13,4 C 13,9 C 8,3 C 84 % 1000,9 hPa 0,0 l/m 0 min 0 min 260 W/m 35,4 km/h (5 Bft) 97,87 %
26.09.2022 13:28 13,5 C 13,9 C 8,3 C 84 % 1000,8 hPa 0,0 l/m 0 min 0 min 262 W/m 22,5 km/h (4 Bft) 100,00 %
26.09.2022 13:30 13,6 C 13,9 C 8,3 C 84 % 1000,8 hPa 0,0 l/m 0 min 0 min 265 W/m 32,2 km/h (5 Bft) 100,00 %
26.09.2022 13:32 13,7 C 13,9 C 8,3 C 83 % 1000,7 hPa 0,0 l/m 0 min 0 min 263 W/m 22,5 km/h (4 Bft) 100,00 %
26.09.2022 13:34 13,7 C 13,9 C 8,3 C 83 % 1000,7 hPa 0,0 l/m 0 min 0 min 242 W/m 22,5 km/h (4 Bft) 100,00 %
26.09.2022 13:36 13,7 C 13,9 C 8,3 C 83 % 1000,6 hPa 0,0 l/m 0 min 0 min 214 W/m 22,5 km/h (4 Bft) 100,00 %
26.09.2022 13:38 13,8 C 13,9 C 8,3 C 83 % 1000,6 hPa 0,0 l/m 0 min 0 min 194 W/m 25,7 km/h (4 Bft) 100,00 %
26.09.2022 13:40 13,8 C 13,9 C 8,3 C 83 % 1000,6 hPa 0,0 l/m 0 min 0 min 190 W/m 16,1 km/h (3 Bft) 100,00 %
26.09.2022 13:42 13,8 C 13,9 C 8,3 C 82 % 1000,5 hPa 0,0 l/m 0 min 0 min 199 W/m 22,5 km/h (4 Bft) 100,00 %
26.09.2022 13:44 13,8 C 13,9 C 8,3 C 82 % 1000,5 hPa 0,0 l/m 0 min 0 min 197 W/m 19,3 km/h (3 Bft) 100,00 %
26.09.2022 13:46 13,9 C 13,9 C 8,3 C 82 % 1000,5 hPa 0,0 l/m 0 min 0 min 184 W/m 29,0 km/h (5 Bft) 100,00 %
26.09.2022 13:48 13,9 C 13,9 C 8,3 C 81 % 1000,4 hPa 0,0 l/m 0 min 0 min 174 W/m 35,4 km/h (5 Bft) 97,87 %
26.09.2022 13:50 13,9 C 13,9 C 8,3 C 81 % 1000,5 hPa 0,0 l/m 0 min 0 min 160 W/m 19,3 km/h (3 Bft) 97,56 %
26.09.2022 13:52 14,0 C 13,9 C 8,3 C 81 % 1000,5 hPa 0,0 l/m 0 min 2 min 127 W/m 12,9 km/h (3 Bft) 100,00 %
26.09.2022 13:54 14,1 C 13,3 C 8,3 C 82 % 1000,4 hPa 0,0 l/m 0 min 2 min 102 W/m 38,6 km/h (5 Bft) 100,00 %
26.09.2022 13:56 14,1 C 13,3 C 8,3 C 82 % 1000,4 hPa 0,0 l/m 0 min 2 min 91 W/m 22,5 km/h (4 Bft) 100,00 %
26.09.2022 13:58 14,1 C 13,3 C 7,8 C 82 % 1000,4 hPa 0,2 l/m 0 min 2 min 95 W/m 25,7 km/h (4 Bft) 100,00 %
26.09.2022 14:00 14,0 C 13,3 C 7,8 C 83 % 1000,4 hPa 0,0 l/m 0 min 2 min 106 W/m 19,3 km/h (3 Bft) 100,00 %
26.09.2022 14:02 13,9 C 13,3 C 7,8 C 84 % 1000,4 hPa 0,0 l/m 0 min 2 min 116 W/m 19,3 km/h (3 Bft) 98,11 %
26.09.2022 14:04 13,9 C 12,8 C 7,8 C 84 % 1000,4 hPa 0,0 l/m 0 min 2 min 136 W/m 22,5 km/h (4 Bft) 100,00 %
26.09.2022 14:06 13,9 C 12,8 C 7,8 C 84 % 1000,4 hPa 0,0 l/m 0 min 2 min 140 W/m 25,7 km/h (4 Bft) 100,00 %
26.09.2022 14:08 13,8 C 12,8 C 7,8 C 84 % 1000,4 hPa 0,0 l/m 0 min 2 min 120 W/m 38,6 km/h (5 Bft) 97,87 %
26.09.2022 14:10 13,7 C 12,8 C 7,8 C 84 % 1000,4 hPa 0,0 l/m 0 min 2 min 109 W/m 22,5 km/h (4 Bft) 100,00 %
26.09.2022 14:12 13,7 C 12,8 C 7,8 C 84 % 1000,4 hPa 0,0 l/m 0 min 2 min 99 W/m 19,3 km/h (3 Bft) 100,00 %
26.09.2022 14:14 13,7 C 12,8 C 7,8 C 85 % 1000,4 hPa 0,0 l/m 0 min 2 min 91 W/m 19,3 km/h (3 Bft) 100,00 %
26.09.2022 14:16 13,6 C 12,8 C 7,8 C 85 % 1000,4 hPa 0,0 l/m 0 min 2 min 95 W/m 19,3 km/h (3 Bft) 95,74 %
26.09.2022 14:18 13,6 C 12,8 C 7,8 C 85 % 1000,4 hPa 0,0 l/m 0 min 2 min 90 W/m 16,1 km/h (3 Bft) 97,83 %
26.09.2022 14:20 13,6 C 12,8 C 7,8 C 85 % 1000,4 hPa 0,0 l/m 0 min 2 min 81 W/m 29,0 km/h (5 Bft) 97,87 %
26.09.2022 14:22 13,6 C 12,8 C 7,8 C 85 % 1000,4 hPa 0,2 l/m 0 min 2 min 70 W/m 19,3 km/h (3 Bft) 97,87 %
26.09.2022 14:24 13,5 C 12,8 C 7,8 C 85 % 1000,4 hPa 0,0 l/m 0 min 2 min 66 W/m 22,5 km/h (4 Bft) 97,87 %
26.09.2022 14:26 13,4 C 12,2 C 7,8 C 85 % 1000,3 hPa 0,0 l/m 0 min 2 min 61 W/m 22,5 km/h (4 Bft) 97,87 %
26.09.2022 14:28 13,4 C 12,2 C 7,8 C 85 % 1000,3 hPa 0,0 l/m 0 min 2 min 63 W/m 25,7 km/h (4 Bft) 100,00 %
26.09.2022 14:30 13,3 C 12,2 C 7,8 C 85 % 1000,2 hPa 0,0 l/m 0 min 2 min 78 W/m 16,1 km/h (3 Bft) 97,83 %
26.09.2022 14:32 13,3 C 12,2 C 7,8 C 86 % 1000,2 hPa 0,0 l/m 0 min 2 min 86 W/m 19,3 km/h (3 Bft) 97,87 %
26.09.2022 14:34 13,3 C 12,8 C 7,2 C 86 % 1000,2 hPa 0,0 l/m 0 min 2 min 96 W/m 25,7 km/h (4 Bft) 97,87 %
26.09.2022 14:36 13,3 C 12,8 C 7,8 C 86 % 1000,2 hPa 0,0 l/m 0 min 2 min 102 W/m 38,6 km/h (5 Bft) 97,87 %
26.09.2022 14:38 13,3 C 12,8 C 7,8 C 86 % 1000,2 hPa 0,0 l/m 0 min 2 min 103 W/m 25,7 km/h (4 Bft) 97,87 %
26.09.2022 14:40 13,3 C 12,2 C 7,8 C 86 % 1000,1 hPa 0,0 l/m 0 min 2 min 99 W/m 25,7 km/h (4 Bft) 97,83 %
26.09.2022 14:42 13,2 C 12,2 C 7,8 C 86 % 1000,0 hPa 0,0 l/m 0 min 2 min 89 W/m 32,2 km/h (5 Bft) 97,87 %
26.09.2022 14:44 13,2 C 12,2 C 7,2 C 86 % 1000,1 hPa 0,0 l/m 0 min 2 min 85 W/m 22,5 km/h (4 Bft) 93,62 %
26.09.2022 14:46 13,2 C 12,2 C 7,2 C 86 % 1000,0 hPa 0,0 l/m 0 min 2 min 94 W/m 25,7 km/h (4 Bft) 97,56 %
26.09.2022 14:48 13,2 C 12,2 C 7,2 C 86 % 1000,0 hPa 0,0 l/m 0 min 2 min 96 W/m 32,2 km/h (5 Bft) 91,49 %
26.09.2022 14:50 13,2 C 12,2 C 7,8 C 87 % 1000,0 hPa 0,0 l/m 0 min 2 min 92 W/m 19,3 km/h (3 Bft) 93,62 %
26.09.2022 14:52 13,2 C 12,2 C 7,8 C 87 % 1000,0 hPa 0,0 l/m 0 min 2 min 84 W/m 19,3 km/h (3 Bft) 91,49 %
26.09.2022 14:54 13,2 C 12,2 C 7,8 C 87 % 999,9 hPa 0,0 l/m 0 min 2 min 83 W/m 32,2 km/h (5 Bft) 93,62 %
26.09.2022 14:56 13,1 C 12,2 C 7,2 C 87 % 1000,0 hPa 0,0 l/m 0 min 2 min 93 W/m 32,2 km/h (5 Bft) 92,31 %
26.09.2022 14:58 13,1 C 12,8 C 7,2 C 87 % 1000,0 hPa 0,0 l/m 0 min 2 min 94 W/m 19,3 km/h (3 Bft) 93,62 %
26.09.2022 15:00 13,1 C 12,2 C 7,2 C 87 % 999,9 hPa 0,0 l/m 0 min 2 min 81 W/m 32,2 km/h (5 Bft) 93,62 %
26.09.2022 15:02 13,1 C 12,2 C 7,2 C 87 % 999,9 hPa 0,0 l/m 0 min 2 min 75 W/m 32,2 km/h (5 Bft) 92,68 %
26.09.2022 15:04 13,1 C 12,2 C 7,2 C 87 % 999,9 hPa 0,2 l/m 0 min 2 min 68 W/m 22,5 km/h (4 Bft) 93,62 %
26.09.2022 15:06 13,1 C 12,2 C 7,2 C 87 % 999,9 hPa 0,0 l/m 0 min 2 min 73 W/m 25,7 km/h (4 Bft) 92,31 %
26.09.2022 15:08 13,0 C 12,2 C 7,2 C 87 % 999,8 hPa 0,0 l/m 0 min 2 min 79 W/m 32,2 km/h (5 Bft) 91,49 %
26.09.2022 15:10 13,0 C 12,2 C 7,2 C 87 % 999,8 hPa 0,0 l/m 0 min 2 min 81 W/m 25,7 km/h (4 Bft) 93,62 %
26.09.2022 15:12 13,0 C 12,2 C 7,8 C 88 % 999,8 hPa 0,0 l/m 0 min 2 min 85 W/m 22,5 km/h (4 Bft) 91,49 %
26.09.2022 15:14 13,0 C 12,2 C 7,8 C 88 % 999,7 hPa 0,0 l/m 0 min 2 min 88 W/m 12,9 km/h (3 Bft) 95,74 %
26.09.2022 15:16 13,0 C 12,2 C 7,8 C 88 % 999,7 hPa 0,0 l/m 0 min 2 min 79 W/m 22,5 km/h (4 Bft) 95,65 %
26.09.2022 15:18 13,0 C 12,2 C 7,8 C 88 % 999,7 hPa 0,0 l/m 0 min 2 min 72 W/m 12,9 km/h (3 Bft) 95,74 %
26.09.2022 15:20 13,0 C 12,2 C 7,2 C 88 % 999,7 hPa 0,0 l/m 0 min 2 min 87 W/m 22,5 km/h (4 Bft) 97,87 %
26.09.2022 15:22 12,9 C 12,2 C 7,2 C 88 % 999,7 hPa 0,0 l/m 0 min 2 min 76 W/m 41,8 km/h (6 Bft) 97,87 %
26.09.2022 15:24 12,9 C 12,2 C 7,2 C 88 % 999,6 hPa 0,0 l/m 0 min 2 min 66 W/m 29,0 km/h (5 Bft) 97,87 %
26.09.2022 15:26 12,8 C 12,2 C 7,2 C 88 % 999,6 hPa 0,0 l/m 0 min 2 min 60 W/m 22,5 km/h (4 Bft) 95,74 %
26.09.2022 15:28 12,8 C 12,2 C 7,8 C 89 % 999,6 hPa 0,0 l/m 0 min 2 min 56 W/m 19,3 km/h (3 Bft) 97,83 %
26.09.2022 15:30 12,8 C 12,2 C 7,2 C 89 % 999,6 hPa 0,0 l/m 0 min 0 min 64 W/m 35,4 km/h (5 Bft) 95,74 %
26.09.2022 15:32 12,8 C 12,2 C 7,8 C 89 % 999,6 hPa 0,0 l/m 0 min 2 min 54 W/m 16,1 km/h (3 Bft) 97,87 %
26.09.2022 15:34 12,8 C 12,2 C 7,8 C 89 % 999,5 hPa 0,0 l/m 0 min 2 min 59 W/m 16,1 km/h (3 Bft) 95,74 %
26.09.2022 15:36 12,8 C 12,2 C 7,8 C 89 % 999,5 hPa 0,0 l/m 0 min 2 min 54 W/m 22,5 km/h (4 Bft) 95,74 %
26.09.2022 15:38 12,8 C 11,7 C 7,2 C 89 % 999,5 hPa 0,2 l/m 0 min 2 min 54 W/m 29,0 km/h (5 Bft) 100,00 %
26.09.2022 15:40 12,8 C 11,7 C 7,2 C 89 % 999,4 hPa 0,0 l/m 0 min 2 min 68 W/m 25,7 km/h (4 Bft) 97,83 %
26.09.2022 15:42 12,8 C 11,7 C 7,2 C 90 % 999,5 hPa 0,0 l/m 0 min 2 min 78 W/m 25,7 km/h (4 Bft) 100,00 %
26.09.2022 15:44 12,8 C 11,7 C 7,2 C 90 % 999,4 hPa 0,0 l/m 0 min 2 min 74 W/m 41,8 km/h (6 Bft) 100,00 %
26.09.2022 15:46 12,8 C 11,7 C 7,8 C 90 % 999,5 hPa 0,0 l/m 0 min 2 min 63 W/m 22,5 km/h (4 Bft) 100,00 %
26.09.2022 15:48 12,8 C 11,7 C 7,2 C 90 % 999,4 hPa 0,0 l/m 0 min 2 min 53 W/m 41,8 km/h (6 Bft) 97,87 %
26.09.2022 15:50 12,8 C 11,7 C 7,2 C 90 % 999,4 hPa 0,0 l/m 0 min 2 min 44 W/m 25,7 km/h (4 Bft) 97,87 %
26.09.2022 15:52 12,8 C 11,7 C 7,2 C 90 % 999,4 hPa 0,0 l/m 0 min 2 min 34 W/m 19,3 km/h (3 Bft) 100,00 %
26.09.2022 15:54 12,7 C 12,2 C 7,2 C 90 % 999,4 hPa 0,0 l/m 0 min 2 min 41 W/m 29,0 km/h (5 Bft) 100,00 %
26.09.2022 15:56 12,7 C 12,2 C 7,2 C 90 % 999,4 hPa 0,0 l/m 0 min 2 min 56 W/m 25,7 km/h (4 Bft) 100,00 %
26.09.2022 15:58 12,7 C 12,2 C 7,8 C 90 % 999,4 hPa 0,2 l/m 0 min 2 min 51 W/m 16,1 km/h (3 Bft) 100,00 %
26.09.2022 16:00 12,7 C 11,7 C 7,8 C 90 % 999,4 hPa 0,0 l/m 0 min 2 min 58 W/m 25,7 km/h (4 Bft) 100,00 %
26.09.2022 16:02 12,7 C 11,7 C 7,8 C 90 % 999,4 hPa 0,0 l/m 0 min 2 min 62 W/m 25,7 km/h (4 Bft) 100,00 %
26.09.2022 16:04 12,7 C 12,2 C 7,8 C 90 % 999,4 hPa 0,0 l/m 0 min 2 min 81 W/m 35,4 km/h (5 Bft) 100,00 %
26.09.2022 16:06 12,7 C 11,7 C 7,2 C 90 % 999,2 hPa 0,0 l/m 0 min 2 min 74 W/m 38,6 km/h (5 Bft) 100,00 %
26.09.2022 16:08 12,7 C 11,7 C 7,2 C 90 % 999,3 hPa 0,0 l/m 0 min 2 min 70 W/m 38,6 km/h (5 Bft) 100,00 %
26.09.2022 16:10 12,7 C 11,7 C 7,2 C 90 % 999,2 hPa 0,2 l/m 0 min 2 min 63 W/m 38,6 km/h (5 Bft) 100,00 %
26.09.2022 16:12 12,7 C 11,1 C 7,2 C 90 % 999,3 hPa 0,0 l/m 0 min 2 min 56 W/m 22,5 km/h (4 Bft) 100,00 %
26.09.2022 16:14 12,6 C 11,1 C 7,8 C 90 % 999,2 hPa 0,2 l/m 0 min 2 min 52 W/m 25,7 km/h (4 Bft) 100,00 %
26.09.2022 16:16 12,6 C 11,1 C 7,8 C 91 % 999,2 hPa 0,0 l/m 0 min 2 min 44 W/m 12,9 km/h (3 Bft) 100,00 %
26.09.2022 16:18 12,6 C 11,1 C 7,8 C 91 % 999,2 hPa 0,0 l/m 0 min 2 min 44 W/m 16,1 km/h (3 Bft) 100,00 %
26.09.2022 16:20 12,6 C 11,1 C 7,8 C 91 % 999,1 hPa 0,0 l/m 0 min 2 min 40 W/m 19,3 km/h (3 Bft) 100,00 %
26.09.2022 16:22 12,5 C 11,1 C 7,2 C 91 % 999,1 hPa 0,0 l/m 0 min 2 min 40 W/m 38,6 km/h (5 Bft) 100,00 %
26.09.2022 16:24 12,4 C 11,1 C 7,2 C 91 % 999,0 hPa 0,2 l/m 0 min 2 min 37 W/m 16,1 km/h (3 Bft) 100,00 %
26.09.2022 16:26 12,4 C 11,1 C 7,2 C 91 % 999,0 hPa 0,0 l/m 0 min 2 min 27 W/m 12,9 km/h (3 Bft) 100,00 %
26.09.2022 16:28 12,4 C 11,1 C 7,8 C 92 % 999,0 hPa 0,0 l/m 0 min 2 min 24 W/m 16,1 km/h (3 Bft) 95,74 %
26.09.2022 16:30 12,3 C 11,1 C 7,8 C 92 % 998,9 hPa 0,0 l/m 0 min 0 min 17 W/m 19,3 km/h (3 Bft) 100,00 %
26.09.2022 16:32 12,3 C 11,1 C 7,8 C 92 % 998,9 hPa 0,0 l/m 0 min 2 min 13 W/m 12,9 km/h (3 Bft) 100,00 %
26.09.2022 16:34 12,3 C 11,1 C 7,2 C 92 % 998,8 hPa 0,0 l/m 0 min 0 min 12 W/m 19,3 km/h (3 Bft) 100,00 %
26.09.2022 16:36 12,3 C 11,1 C 7,2 C 92 % 998,8 hPa 0,0 l/m 0 min 0 min 14 W/m 6,4 km/h (2 Bft) 95,74 %
26.09.2022 16:38 12,2 C 11,1 C 7,2 C 92 % 998,8 hPa 0,0 l/m 0 min 0 min 16 W/m 22,5 km/h (4 Bft) 97,87 %
26.09.2022 16:40 12,2 C 11,1 C 7,2 C 92 % 998,7 hPa 0,0 l/m 0 min 0 min 18 W/m 9,7 km/h (2 Bft) 97,87 %
26.09.2022 16:42 12,2 C 11,1 C 7,2 C 93 % 998,7 hPa 0,0 l/m 0 min 2 min 19 W/m 12,9 km/h (3 Bft) 97,62 %
26.09.2022 16:44 12,2 C 11,1 C 7,2 C 93 % 998,6 hPa 0,0 l/m 0 min 2 min 20 W/m 22,5 km/h (4 Bft) 96,08 %
26.09.2022 16:46 12,1 C 11,1 C 7,2 C 93 % 998,7 hPa 0,0 l/m 0 min 2 min 26 W/m 29,0 km/h (5 Bft) 98,00 %
26.09.2022 16:48 12,1 C 11,1 C 7,2 C 93 % 998,6 hPa 0,0 l/m 0 min 2 min 26 W/m 12,9 km/h (3 Bft) 98,00 %
26.09.2022 16:50 12,1 C 11,1 C 7,2 C 93 % 998,6 hPa 0,2 l/m 0 min 2 min 26 W/m 9,7 km/h (2 Bft) 97,87 %
26.09.2022 16:52 12,1 C 11,1 C 7,2 C 93 % 998,5 hPa 0,0 l/m 0 min 2 min 24 W/m 35,4 km/h (5 Bft) 97,83 %
26.09.2022 16:54 12,1 C 11,1 C 7,2 C 93 % 998,6 hPa 0,0 l/m 0 min 2 min 23 W/m 22,5 km/h (4 Bft) 95,74 %
26.09.2022 16:56 12,1 C 11,1 C 7,2 C 93 % 998,4 hPa 0,0 l/m 0 min 0 min 24 W/m 22,5 km/h (4 Bft) 95,74 %
26.09.2022 16:58 12,1 C 11,1 C 7,2 C 93 % 998,6 hPa 0,0 l/m 0 min 0 min 21 W/m 16,1 km/h (3 Bft) 97,37 %
26.09.2022 17:00 12,1 C 11,1 C 7,2 C 93 % 998,5 hPa 0,0 l/m 0 min 0 min 24 W/m 22,5 km/h (4 Bft) 97,87 %
26.09.2022 17:02 12,1 C 11,7 C 7,2 C 93 % 998,5 hPa 0,0 l/m 0 min 0 min 23 W/m 16,1 km/h (3 Bft) 95,56 %
26.09.2022 17:04 12,1 C 11,7 C 7,2 C 93 % 998,4 hPa 0,0 l/m 0 min 0 min 21 W/m 32,2 km/h (5 Bft) 95,83 %
26.09.2022 17:06 12,1 C 11,7 C 7,2 C 93 % 998,4 hPa 0,0 l/m 0 min 0 min 19 W/m 29,0 km/h (5 Bft) 96,55 %
26.09.2022 17:08 12,1 C 11,7 C 7,2 C 93 % 998,4 hPa 0,0 l/m 0 min 0 min 18 W/m 19,3 km/h (3 Bft) 94,29 %
26.09.2022 17:10 12,1 C 11,7 C 7,2 C 93 % 998,4 hPa 0,0 l/m 0 min 0 min 15 W/m 22,5 km/h (4 Bft) 97,87 %
26.09.2022 17:12 12,1 C 11,7 C 7,2 C 93 % 998,4 hPa 0,0 l/m 0 min 0 min 12 W/m 45,1 km/h (6 Bft) 97,87 %
26.09.2022 17:14 12,1 C 11,7 C 7,2 C 93 % 998,3 hPa 0,0 l/m 0 min 0 min 11 W/m 19,3 km/h (3 Bft) 97,87 %
26.09.2022 17:16 12,1 C 11,7 C 7,2 C 93 % 998,4 hPa 0,0 l/m 0 min 0 min 12 W/m 32,2 km/h (5 Bft) 95,74 %
26.09.2022 17:18 12,1 C 11,7 C 7,2 C 92 % 998,3 hPa 0,0 l/m 0 min 2 min 14 W/m 29,0 km/h (5 Bft) 95,74 %
26.09.2022 17:20 12,2 C 11,7 C 7,2 C 92 % 998,3 hPa 0,0 l/m 0 min 2 min 14 W/m 38,6 km/h (5 Bft) 97,83 %
26.09.2022 17:22 12,2 C 11,7 C 7,2 C 92 % 998,3 hPa 0,0 l/m 0 min 2 min 14 W/m 32,2 km/h (5 Bft) 97,87 %
26.09.2022 17:24 12,2 C 11,7 C 7,2 C 92 % 998,2 hPa 0,0 l/m 0 min 2 min 16 W/m 32,2 km/h (5 Bft) 97,87 %
26.09.2022 17:26 12,2 C 11,7 C 7,2 C 92 % 998,3 hPa 0,0 l/m 0 min 2 min 15 W/m 25,7 km/h (4 Bft) 93,62 %
26.09.2022 17:28 12,2 C 11,7 C 7,2 C 92 % 998,2 hPa 0,0 l/m 0 min 2 min 15 W/m 35,4 km/h (5 Bft) 97,87 %
26.09.2022 17:30 12,2 C 11,7 C 7,2 C 92 % 998,2 hPa 0,0 l/m 0 min 2 min 13 W/m 32,2 km/h (5 Bft) 97,87 %
26.09.2022 17:32 12,2 C 11,7 C 7,2 C 92 % 998,2 hPa 0,0 l/m 0 min 2 min 14 W/m 35,4 km/h (5 Bft) 97,83 %
26.09.2022 17:34 12,2 C 11,7 C 7,2 C 92 % 998,1 hPa 0,0 l/m 0 min 2 min 16 W/m 29,0 km/h (5 Bft) 95,74 %
26.09.2022 17:36 12,2 C 11,7 C 7,2 C 92 % 998,0 hPa 0,0 l/m 0 min 2 min 17 W/m 38,6 km/h (5 Bft) 96,61 %
26.09.2022 17:38 12,2 C 11,7 C 7,2 C 91 % 998,2 hPa 0,0 l/m 0 min 0 min 17 W/m 32,2 km/h (5 Bft) 97,14 %
26.09.2022 17:40 12,2 C 11,7 C 7,2 C 91 % 998,0 hPa 0,0 l/m 0 min 0 min 18 W/m 29,0 km/h (5 Bft) 97,87 %
26.09.2022 17:42 12,2 C 11,7 C 7,2 C 91 % 997,9 hPa 0,0 l/m 0 min 0 min 17 W/m 35,4 km/h (5 Bft) 97,87 %
26.09.2022 17:44 12,3 C 11,7 C 7,2 C 90 % 998,0 hPa 0,0 l/m 0 min 0 min 17 W/m 35,4 km/h (5 Bft) 97,83 %
26.09.2022 17:46 12,3 C 11,7 C 7,2 C 90 % 997,9 hPa 0,0 l/m 0 min 0 min 19 W/m 32,2 km/h (5 Bft) 97,87 %
26.09.2022 17:48 12,3 C 11,7 C 7,2 C 90 % 997,8 hPa 0,0 l/m 0 min 0 min 18 W/m 29,0 km/h (5 Bft) 97,87 %
26.09.2022 17:50 12,3 C 11,7 C 7,2 C 90 % 997,8 hPa 0,0 l/m 0 min 0 min 15 W/m 25,7 km/h (4 Bft) 97,87 %
26.09.2022 17:52 12,3 C 11,7 C 7,2 C 90 % 997,8 hPa 0,0 l/m 0 min 0 min 15 W/m 35,4 km/h (5 Bft) 97,87 %
26.09.2022 17:54 12,4 C 11,7 C 7,2 C 89 % 997,8 hPa 0,0 l/m 0 min 0 min 15 W/m 38,6 km/h (5 Bft) 97,87 %
26.09.2022 17:56 12,4 C 11,7 C 7,2 C 89 % 997,8 hPa 0,0 l/m 0 min 0 min 15 W/m 35,4 km/h (5 Bft) 97,83 %
26.09.2022 17:58 12,4 C 11,7 C 7,2 C 89 % 997,7 hPa 0,0 l/m 0 min 0 min 14 W/m 25,7 km/h (4 Bft) 97,87 %
26.09.2022 18:00 12,4 C 11,7 C 7,2 C 89 % 997,7 hPa 0,0 l/m 0 min 0 min 11 W/m 35,4 km/h (5 Bft) 97,87 %
26.09.2022 18:02 12,5 C 11,7 C 7,2 C 88 % 997,7 hPa 0,0 l/m 0 min 0 min 8 W/m 41,8 km/h (6 Bft) 97,87 %
26.09.2022 18:04 12,5 C 11,7 C 7,2 C 88 % 997,8 hPa 0,0 l/m 0 min 0 min 7 W/m 32,2 km/h (5 Bft) 95,74 %
26.09.2022 18:08 12,6 C 11,7 C 7,2 C 88 % 997,6 hPa 0,0 l/m 0 min 0 min 8 W/m 35,4 km/h (5 Bft) 97,85 %
26.09.2022 18:10 12,6 C 11,7 C 7,2 C 88 % 997,6 hPa 0,0 l/m 0 min 0 min 10 W/m 22,5 km/h (4 Bft) 97,87 %
26.09.2022 18:12 12,6 C 11,7 C 7,2 C 88 % 997,7 hPa 0,0 l/m 0 min 0 min 12 W/m 32,2 km/h (5 Bft) 97,87 %
26.09.2022 18:14 12,6 C 11,7 C 7,2 C 87 % 997,6 hPa 0,0 l/m 0 min 0 min 12 W/m 32,2 km/h (5 Bft) 97,87 %
26.09.2022 18:16 12,6 C 11,7 C 7,2 C 87 % 997,6 hPa 0,0 l/m 0 min 0 min 11 W/m 16,1 km/h (3 Bft) 97,87 %
26.09.2022 18:18 12,6 C 11,7 C 7,2 C 87 % 997,6 hPa 0,0 l/m 0 min 0 min 11 W/m 25,7 km/h (4 Bft) 97,87 %
26.09.2022 18:20 12,6 C 11,7 C 7,2 C 88 % 997,6 hPa 0,0 l/m 0 min 0 min 12 W/m 25,7 km/h (4 Bft) 97,83 %
26.09.2022 18:22 12,6 C 11,7 C 7,2 C 87 % 997,6 hPa 0,0 l/m 0 min 2 min 12 W/m 35,4 km/h (5 Bft) 93,62 %
26.09.2022 18:24 12,6 C 11,7 C 7,2 C 87 % 997,6 hPa 0,0 l/m 0 min 2 min 11 W/m 29,0 km/h (5 Bft) 95,74 %
26.09.2022 18:26 12,6 C 11,7 C 7,2 C 88 % 997,5 hPa 0,0 l/m 0 min 2 min 11 W/m 54,7 km/h (7 Bft) 95,74 %
26.09.2022 18:28 12,5 C 11,7 C 7,2 C 88 % 997,5 hPa 0,0 l/m 0 min 2 min 7 W/m 45,1 km/h (6 Bft) 95,74 %
26.09.2022 18:30 12,4 C 11,1 C 7,2 C 88 % 997,5 hPa 0,0 l/m 0 min 2 min 7 W/m 32,2 km/h (5 Bft) 95,74 %
26.09.2022 18:32 12,4 C 11,1 C 7,2 C 88 % 997,4 hPa 0,0 l/m 0 min 2 min 5 W/m 22,5 km/h (4 Bft) 95,65 %
26.09.2022 18:34 12,4 C 11,1 C 7,2 C 89 % 997,4 hPa 0,0 l/m 0 min 2 min 5 W/m 25,7 km/h (4 Bft) 95,74 %
26.09.2022 18:36 12,3 C 11,1 C 7,2 C 89 % 997,3 hPa 0,0 l/m 0 min 2 min 6 W/m 25,7 km/h (4 Bft) 94,92 %
26.09.2022 18:38 12,3 C 11,1 C 7,2 C 89 % 997,3 hPa 0,2 l/m 0 min 2 min 7 W/m 41,8 km/h (6 Bft) 97,14 %
26.09.2022 18:40 12,2 C 10,6 C 7,2 C 89 % 997,3 hPa 0,0 l/m 0 min 2 min 7 W/m 22,5 km/h (4 Bft) 93,62 %
26.09.2022 18:42 12,1 C 10,6 C 7,2 C 90 % 997,3 hPa 0,0 l/m 0 min 2 min 7 W/m 25,7 km/h (4 Bft) 95,65 %
26.09.2022 18:44 12,1 C 10,6 C 7,2 C 90 % 997,3 hPa 0,0 l/m 0 min 2 min 7 W/m 32,2 km/h (5 Bft) 97,87 %
26.09.2022 18:46 12,1 C 10,6 C 7,2 C 90 % 997,2 hPa 0,0 l/m 0 min 2 min 7 W/m 19,3 km/h (3 Bft) 97,87 %
26.09.2022 18:48 12,1 C 10,6 C 7,2 C 91 % 997,2 hPa 0,0 l/m 0 min 2 min 7 W/m 16,1 km/h (3 Bft) 95,74 %
26.09.2022 18:50 12,0 C 10,6 C 7,2 C 91 % 997,2 hPa 0,0 l/m 0 min 2 min 6 W/m 48,3 km/h (6 Bft) 97,87 %
26.09.2022 18:52 11,9 C 10,6 C 7,2 C 91 % 997,2 hPa 0,0 l/m 0 min 2 min 7 W/m 25,7 km/h (4 Bft) 95,74 %
26.09.2022 18:54 11,9 C 10,6 C 7,2 C 91 % 997,2 hPa 0,2 l/m 0 min 2 min 6 W/m 19,3 km/h (3 Bft) 97,83 %
26.09.2022 18:56 11,9 C 10,6 C 7,2 C 92 % 997,1 hPa 0,0 l/m 0 min 2 min 5 W/m 16,1 km/h (3 Bft) 95,74 %
26.09.2022 18:58 11,9 C 10,6 C 7,2 C 92 % 997,1 hPa 0,0 l/m 0 min 2 min 3 W/m 29,0 km/h (5 Bft) 100,00 %
26.09.2022 19:00 11,8 C 10,6 C 7,2 C 92 % 997,0 hPa 0,0 l/m 0 min 0 min 2 W/m 19,3 km/h (3 Bft) 100,00 %
26.09.2022 19:02 11,8 C 10,6 C 7,2 C 92 % 997,1 hPa 0,0 l/m 0 min 2 min 0 W/m 25,7 km/h (4 Bft) 100,00 %
26.09.2022 19:04 11,8 C 10,6 C 7,2 C 92 % 997,0 hPa 0,0 l/m 0 min 2 min 0 W/m 19,3 km/h (3 Bft) 100,00 %
26.09.2022 19:06 11,7 C 10,6 C 7,2 C 93 % 997,0 hPa 0,0 l/m 0 min 2 min 0 W/m 12,9 km/h (3 Bft) 100,00 %
26.09.2022 19:08 11,7 C 10,6 C 7,2 C 93 % 997,0 hPa 0,0 l/m 0 min 2 min 0 W/m 32,2 km/h (5 Bft) 100,00 %
26.09.2022 19:10 11,7 C 10,6 C 7,2 C 93 % 997,0 hPa 0,0 l/m 0 min 2 min 0 W/m 19,3 km/h (3 Bft) 100,00 %
26.09.2022 19:12 11,7 C 10,6 C 7,2 C 93 % 997,0 hPa 0,0 l/m 0 min 2 min 0 W/m 22,5 km/h (4 Bft) 100,00 %
26.09.2022 19:14 11,7 C 10,6 C 7,2 C 93 % 997,0 hPa 0,0 l/m 0 min 2 min 0 W/m 19,3 km/h (3 Bft) 100,00 %
26.09.2022 19:16 11,7 C 10,6 C 7,2 C 93 % 996,9 hPa 0,0 l/m 0 min 2 min 0 W/m 25,7 km/h (4 Bft) 97,87 %
26.09.2022 19:18 11,6 C 10,6 C 7,2 C 93 % 996,9 hPa 0,0 l/m 0 min 2 min 0 W/m 29,0 km/h (5 Bft) 100,00 %
26.09.2022 19:20 11,6 C 10,6 C 7,2 C 93 % 996,9 hPa 0,0 l/m 0 min 2 min 0 W/m 19,3 km/h (3 Bft) 95,74 %
26.09.2022 19:22 11,6 C 10,6 C 7,2 C 93 % 997,0 hPa 0,2 l/m 0 min 2 min 0 W/m 32,2 km/h (5 Bft) 100,00 %
26.09.2022 19:24 11,6 C 10,6 C 7,2 C 94 % 997,0 hPa 0,0 l/m 0 min 2 min 0 W/m 19,3 km/h (3 Bft) 97,87 %
26.09.2022 19:26 11,6 C 10,6 C 7,2 C 94 % 997,0 hPa 0,0 l/m 0 min 2 min 0 W/m 35,4 km/h (5 Bft) 100,00 %
26.09.2022 19:28 11,6 C 10,6 C 7,2 C 94 % 996,9 hPa 0,0 l/m 0 min 2 min 0 W/m 25,7 km/h (4 Bft) 100,00 %
26.09.2022 19:30 11,6 C 10,6 C 7,2 C 94 % 996,9 hPa 0,0 l/m 0 min 2 min 0 W/m 19,3 km/h (3 Bft) 97,83 %
26.09.2022 19:32 11,5 C 10,6 C 7,2 C 94 % 996,9 hPa 0,0 l/m 0 min 2 min 0 W/m 32,2 km/h (5 Bft) 97,87 %
26.09.2022 19:34 11,5 C 10,6 C 7,2 C 94 % 996,9 hPa 0,0 l/m 0 min 2 min 0 W/m 19,3 km/h (3 Bft) 100,00 %
26.09.2022 19:36 11,5 C 10,6 C 7,2 C 94 % 996,9 hPa 0,0 l/m 0 min 2 min 0 W/m 22,5 km/h (4 Bft) 100,00 %
26.09.2022 19:38 11,5 C 10,6 C 7,2 C 94 % 996,8 hPa 0,0 l/m 0 min 2 min 0 W/m 19,3 km/h (3 Bft) 97,14 %
26.09.2022 19:40 11,5 C 10,6 C 7,2 C 94 % 996,7 hPa 0,0 l/m 0 min 2 min 0 W/m 29,0 km/h (5 Bft) 95,74 %
26.09.2022 19:42 11,5 C 10,6 C 7,2 C 94 % 996,8 hPa 0,0 l/m 0 min 2 min 0 W/m 22,5 km/h (4 Bft) 95,65 %
26.09.2022 19:44 11,5 C 10,6 C 7,2 C 94 % 996,8 hPa 0,0 l/m 0 min 2 min 0 W/m 29,0 km/h (5 Bft) 97,87 %
26.09.2022 19:46 11,4 C 10,6 C 7,2 C 94 % 996,8 hPa 0,0 l/m 0 min 2 min 0 W/m 19,3 km/h (3 Bft) 97,87 %
26.09.2022 19:48 11,4 C 10,6 C 7,2 C 94 % 996,8 hPa 0,0 l/m 0 min 2 min 0 W/m 22,5 km/h (4 Bft) 97,87 %
26.09.2022 19:50 11,4 C 10,6 C 7,2 C 94 % 996,7 hPa 0,0 l/m 0 min 0 min 0 W/m 25,7 km/h (4 Bft) 95,74 %
26.09.2022 19:52 11,4 C 10,6 C 7,2 C 94 % 996,8 hPa 0,0 l/m 0 min 0 min 0 W/m 25,7 km/h (4 Bft) 97,87 %
26.09.2022 19:54 11,4 C 10,6 C 7,2 C 94 % 996,7 hPa 0,0 l/m 0 min 2 min 0 W/m 25,7 km/h (4 Bft) 97,83 %
26.09.2022 19:56 11,4 C 10,6 C 7,2 C 94 % 996,7 hPa 0,0 l/m 0 min 2 min 0 W/m 22,5 km/h (4 Bft) 97,87 %
26.09.2022 19:58 11,4 C 10,6 C 7,2 C 95 % 996,7 hPa 0,0 l/m 0 min 2 min 0 W/m 29,0 km/h (5 Bft) 97,87 %
26.09.2022 20:00 11,4 C 10,6 C 7,2 C 95 % 996,7 hPa 0,0 l/m 0 min 2 min 0 W/m 22,5 km/h (4 Bft) 97,87 %
26.09.2022 20:02 11,4 C 10,6 C 7,2 C 95 % 996,7 hPa 0,0 l/m 0 min 2 min 0 W/m 16,1 km/h (3 Bft) 97,87 %
26.09.2022 20:04 11,4 C 10,6 C 7,2 C 95 % 996,7 hPa 0,2 l/m 0 min 2 min 0 W/m 25,7 km/h (4 Bft) 97,87 %
26.09.2022 20:06 11,4 C 10,6 C 7,2 C 95 % 996,7 hPa 0,0 l/m 0 min 2 min 0 W/m 29,0 km/h (5 Bft) 96,55 %
26.09.2022 20:08 11,3 C 10,6 C 7,2 C 95 % 996,7 hPa 0,0 l/m 0 min 2 min 0 W/m 19,3 km/h (3 Bft) 97,14 %
26.09.2022 20:10 11,3 C 10,6 C 7,2 C 95 % 996,7 hPa 0,0 l/m 0 min 2 min 0 W/m 29,0 km/h (5 Bft) 97,87 %
26.09.2022 20:12 11,3 C 10,6 C 7,2 C 95 % 996,7 hPa 0,0 l/m 0 min 2 min 0 W/m 32,2 km/h (5 Bft) 97,87 %
26.09.2022 20:14 11,3 C 10,6 C 7,2 C 95 % 996,7 hPa 0,0 l/m 0 min 2 min 0 W/m 19,3 km/h (3 Bft) 97,87 %
26.09.2022 20:16 11,3 C 10,6 C 7,2 C 95 % 996,7 hPa 0,0 l/m 0 min 2 min 0 W/m 22,5 km/h (4 Bft) 95,74 %
26.09.2022 20:18 11,3 C 10,6 C 7,2 C 95 % 996,6 hPa 0,0 l/m 0 min 2 min 0 W/m 19,3 km/h (3 Bft) 93,48 %
26.09.2022 20:20 11,3 C 10,6 C 7,2 C 95 % 996,7 hPa 0,0 l/m 0 min 2 min 0 W/m 22,5 km/h (4 Bft) 95,74 %
26.09.2022 20:22 11,3 C 10,6 C 7,2 C 95 % 996,7 hPa 0,0 l/m 0 min 2 min 0 W/m 16,1 km/h (3 Bft) 93,62 %
26.09.2022 20:24 11,3 C 10,6 C 7,2 C 95 % 996,6 hPa 0,0 l/m 0 min 0 min 0 W/m 19,3 km/h (3 Bft) 97,87 %
26.09.2022 20:26 11,3 C 10,6 C 7,2 C 95 % 996,6 hPa 0,0 l/m 0 min 2 min 0 W/m 19,3 km/h (3 Bft) 100,00 %
26.09.2022 20:28 11,3 C 10,6 C 7,2 C 95 % 996,6 hPa 0,0 l/m 0 min 0 min 0 W/m 16,1 km/h (3 Bft) 97,87 %
26.09.2022 20:30 11,3 C 10,6 C 7,2 C 95 % 996,6 hPa 0,0 l/m 0 min 2 min 0 W/m 16,1 km/h (3 Bft) 97,83 %
26.09.2022 20:32 11,3 C 10,6 C 7,2 C 95 % 996,6 hPa 0,0 l/m 0 min 0 min 0 W/m 22,5 km/h (4 Bft) 97,87 %
26.09.2022 20:34 11,3 C 10,6 C 7,2 C 95 % 996,6 hPa 0,0 l/m 0 min 0 min 0 W/m 19,3 km/h (3 Bft) 97,87 %
26.09.2022 20:36 11,3 C 10,6 C 7,2 C 96 % 996,6 hPa 0,0 l/m 0 min 0 min 0 W/m 6,4 km/h (2 Bft) 98,31 %
26.09.2022 20:38 11,3 C 10,6 C 7,2 C 96 % 996,6 hPa 0,0 l/m 0 min 2 min 0 W/m 16,1 km/h (3 Bft) 97,14 %
26.09.2022 20:40 11,3 C 10,6 C 7,2 C 96 % 996,6 hPa 0,0 l/m 0 min 2 min 0 W/m 12,9 km/h (3 Bft) 97,87 %
26.09.2022 20:42 11,3 C 10,6 C 7,2 C 96 % 996,7 hPa 0,0 l/m 0 min 2 min 0 W/m 12,9 km/h (3 Bft) 97,83 %
26.09.2022 20:44 11,3 C 10,6 C 7,2 C 96 % 996,7 hPa 0,0 l/m 0 min 2 min 0 W/m 12,9 km/h (3 Bft) 97,87 %
26.09.2022 20:46 11,3 C 10,6 C 7,2 C 96 % 996,7 hPa 0,0 l/m 0 min 2 min 0 W/m 12,9 km/h (3 Bft) 97,87 %
26.09.2022 20:48 11,3 C 10,6 C 7,2 C 96 % 996,6 hPa 0,0 l/m 0 min 2 min 0 W/m 6,4 km/h (2 Bft) 100,00 %
26.09.2022 20:50 11,3 C 10,6 C 7,2 C 96 % 996,6 hPa 0,0 l/m 0 min 2 min 0 W/m 12,9 km/h (3 Bft) 100,00 %
26.09.2022 20:52 11,3 C 10,6 C 7,2 C 96 % 996,6 hPa 0,0 l/m 0 min 0 min 0 W/m 19,3 km/h (3 Bft) 100,00 %
26.09.2022 20:54 11,3 C 10,6 C 7,2 C 96 % 996,6 hPa 0,0 l/m 0 min 0 min 0 W/m 9,7 km/h (2 Bft) 100,00 %
26.09.2022 20:56 11,3 C 10,6 C 7,2 C 96 % 996,7 hPa 0,0 l/m 0 min 0 min 0 W/m 16,1 km/h (3 Bft) 100,00 %
26.09.2022 20:58 11,2 C 10,6 C 7,2 C 96 % 996,7 hPa 0,0 l/m 0 min 0 min 0 W/m 19,3 km/h (3 Bft) 97,87 %
26.09.2022 21:00 11,3 C 10,6 C 7,2 C 96 % 996,7 hPa 0,0 l/m 0 min 0 min 0 W/m 12,9 km/h (3 Bft) 95,74 %
26.09.2022 21:02 11,2 C 10,6 C 7,2 C 96 % 996,7 hPa 0,0 l/m 0 min 0 min 0 W/m 9,7 km/h (2 Bft) 97,87 %
26.09.2022 21:04 11,2 C 10,6 C 7,2 C 96 % 996,7 hPa 0,0 l/m 0 min 0 min 0 W/m 9,7 km/h (2 Bft) 97,83 %
26.09.2022 21:06 11,2 C 10,6 C 7,2 C 96 % 996,6 hPa 0,0 l/m 0 min 0 min 0 W/m 6,4 km/h (2 Bft) 98,31 %
26.09.2022 21:08 11,2 C 10,6 C 7,2 C 96 % 996,6 hPa 0,0 l/m 0 min 0 min 0 W/m 9,7 km/h (2 Bft) 97,14 %
26.09.2022 21:10 11,2 C 10,6 C 7,2 C 96 % 996,6 hPa 0,0 l/m 0 min 0 min 0 W/m 3,2 km/h (1 Bft) 97,87 %
26.09.2022 21:12 11,2 C 10,6 C 7,2 C 96 % 996,5 hPa 0,0 l/m 0 min 0 min 0 W/m 6,4 km/h (2 Bft) 95,74 %
26.09.2022 21:14 11,2 C 10,6 C 7,2 C 96 % 996,6 hPa 0,0 l/m 0 min 0 min 0 W/m 6,4 km/h (2 Bft) 97,87 %
26.09.2022 21:16 11,2 C 10,6 C 7,2 C 96 % 996,5 hPa 0,0 l/m 0 min 0 min 0 W/m 12,9 km/h (3 Bft) 95,65 %
26.09.2022 21:18 11,2 C 10,6 C 7,2 C 96 % 996,5 hPa 0,0 l/m 0 min 0 min 0 W/m 9,7 km/h (2 Bft) 97,87 %
26.09.2022 21:20 11,2 C 10,6 C 7,2 C 96 % 996,5 hPa 0,0 l/m 0 min 0 min 0 W/m 9,7 km/h (2 Bft) 97,87 %
26.09.2022 21:22 11,2 C 10,6 C 7,2 C 96 % 996,5 hPa 0,0 l/m 0 min 0 min 0 W/m 9,7 km/h (2 Bft) 95,74 %
26.09.2022 21:24 11,2 C 10,6 C 7,2 C 96 % 996,5 hPa 0,0 l/m 0 min 0 min 0 W/m 6,4 km/h (2 Bft) 97,87 %
26.09.2022 21:26 11,2 C 10,6 C 7,2 C 96 % 996,5 hPa 0,0 l/m 0 min 0 min 0 W/m 12,9 km/h (3 Bft) 95,74 %
26.09.2022 21:28 11,2 C 10,6 C 7,2 C 96 % 996,5 hPa 0,0 l/m 0 min 0 min 0 W/m 6,4 km/h (2 Bft) 97,83 %
26.09.2022 21:30 11,2 C 10,6 C 7,2 C 96 % 996,4 hPa 0,0 l/m 0 min 0 min 0 W/m 22,5 km/h (4 Bft) 97,87 %
26.09.2022 21:32 11,1 C 10,6 C 7,2 C 96 % 996,4 hPa 0,0 l/m 0 min 0 min 0 W/m 16,1 km/h (3 Bft) 93,62 %
26.09.2022 21:34 11,1 C 10,6 C 7,2 C 97 % 996,4 hPa 0,0 l/m 0 min 0 min 0 W/m 9,7 km/h (2 Bft) 97,87 %
26.09.2022 21:36 11,1 C 10,6 C 7,2 C 97 % 996,4 hPa 0,0 l/m 0 min 0 min 0 W/m 6,4 km/h (2 Bft) 97,87 %
26.09.2022 21:38 11,1 C 10,6 C 7,2 C 96 % 996,5 hPa 0,0 l/m 0 min 0 min 0 W/m 12,9 km/h (3 Bft) 97,87 %
26.09.2022 21:40 11,1 C 10,6 C 7,2 C 96 % 996,4 hPa 0,0 l/m 0 min 0 min 0 W/m 6,4 km/h (2 Bft) 97,87 %
26.09.2022 21:42 11,1 C 10,6 C 7,2 C 96 % 996,5 hPa 0,0 l/m 0 min 0 min 0 W/m 6,4 km/h (2 Bft) 84,78 %
26.09.2022 21:44 11,1 C 10,6 C 7,2 C 96 % 996,5 hPa 0,0 l/m 0 min 2 min 0 W/m 6,4 km/h (2 Bft) 62,16 %
26.09.2022 21:46 11,1 C 10,6 C 7,2 C 96 % 996,4 hPa 0,0 l/m 0 min 0 min 0 W/m 3,2 km/h (1 Bft) 97,87 %
26.09.2022 21:48 11,1 C 10,6 C 7,2 C 96 % 996,4 hPa 0,0 l/m 0 min 2 min 0 W/m 12,9 km/h (3 Bft) 95,74 %
26.09.2022 21:50 11,1 C 10,6 C 7,2 C 96 % 996,4 hPa 0,0 l/m 0 min 2 min 0 W/m 9,7 km/h (2 Bft) 100,00 %
26.09.2022 21:52 11,1 C 10,6 C 7,2 C 96 % 996,4 hPa 0,0 l/m 0 min 2 min 0 W/m 6,4 km/h (2 Bft) 100,00 %
26.09.2022 21:54 11,0 C 10,0 C 7,2 C 96 % 996,4 hPa 0,0 l/m 0 min 2 min 0 W/m 9,7 km/h (2 Bft) 100,00 %
26.09.2022 21:56 11,0 C 10,0 C 7,2 C 96 % 996,4 hPa 0,0 l/m 0 min 0 min 0 W/m 6,4 km/h (2 Bft) 97,87 %
26.09.2022 21:58 10,9 C 10,0 C 7,2 C 96 % 996,4 hPa 0,0 l/m 0 min 0 min 0 W/m 12,9 km/h (3 Bft) 97,87 %
26.09.2022 22:00 10,9 C 10,0 C 7,2 C 96 % 996,4 hPa 0,0 l/m 0 min 0 min 0 W/m 12,9 km/h (3 Bft) 100,00 %
26.09.2022 22:02 10,9 C 10,0 C 7,2 C 96 % 996,4 hPa 0,0 l/m 0 min 0 min 0 W/m 9,7 km/h (2 Bft) 100,00 %
26.09.2022 22:04 10,9 C 10,0 C 7,2 C 96 % 996,4 hPa 0,0 l/m 0 min 0 min 0 W/m 6,4 km/h (2 Bft) 100,00 %
26.09.2022 22:06 10,9 C 10,0 C 7,2 C 96 % 996,4 hPa 0,0 l/m 0 min 0 min 0 W/m 6,4 km/h (2 Bft) 91,30 %
26.09.2022 22:08 10,9 C 10,0 C 7,2 C 97 % 996,4 hPa 0,0 l/m 0 min 0 min 0 W/m 3,2 km/h (1 Bft) 97,87 %
26.09.2022 22:10 10,9 C 10,0 C 7,2 C 97 % 996,3 hPa 0,0 l/m 0 min 0 min 0 W/m 6,4 km/h (2 Bft) 97,87 %
26.09.2022 22:12 10,9 C 10,0 C 6,7 C 97 % 996,3 hPa 0,0 l/m 0 min 0 min 0 W/m 3,2 km/h (1 Bft) 97,87 %
26.09.2022 22:14 10,9 C 10,0 C 6,7 C 97 % 996,3 hPa 0,0 l/m 0 min 0 min 0 W/m 6,4 km/h (2 Bft) 97,87 %
26.09.2022 22:16 10,9 C 10,0 C 6,7 C 97 % 996,3 hPa 0,0 l/m 0 min 0 min 0 W/m 6,4 km/h (2 Bft) 95,65 %
26.09.2022 22:18 10,8 C 10,0 C 6,7 C 97 % 996,3 hPa 0,0 l/m 0 min 0 min 0 W/m 6,4 km/h (2 Bft) 95,74 %
26.09.2022 22:20 10,8 C 10,0 C 6,7 C 97 % 996,3 hPa 0,0 l/m 0 min 0 min 0 W/m 6,4 km/h (2 Bft) 95,74 %
26.09.2022 22:22 10,8 C 10,0 C 6,7 C 97 % 996,3 hPa 0,0 l/m 0 min 0 min 0 W/m 6,4 km/h (2 Bft) 95,74 %
26.09.2022 22:24 10,8 C 10,0 C 6,7 C 97 % 996,3 hPa 0,0 l/m 0 min 0 min 0 W/m 9,7 km/h (2 Bft) 93,62 %
26.09.2022 22:26 10,8 C 10,0 C 6,7 C 97 % 996,3 hPa 0,0 l/m 0 min 0 min 0 W/m 9,7 km/h (2 Bft) 95,74 %
26.09.2022 22:28 10,8 C 10,0 C 6,7 C 97 % 996,2 hPa 0,0 l/m 0 min 0 min 0 W/m 6,4 km/h (2 Bft) 95,65 %
26.09.2022 22:30 10,7 C 10,0 C 6,7 C 97 % 996,2 hPa 0,0 l/m 0 min 0 min 0 W/m 12,9 km/h (3 Bft) 93,62 %
26.09.2022 22:32 10,7 C 10,0 C 6,7 C 96 % 996,2 hPa 0,0 l/m 0 min 0 min 0 W/m 12,9 km/h (3 Bft) 95,74 %
26.09.2022 22:34 10,7 C 10,0 C 6,7 C 96 % 996,2 hPa 0,0 l/m 0 min 0 min 0 W/m 6,4 km/h (2 Bft) 93,62 %
26.09.2022 22:36 10,7 C 10,0 C 6,7 C 96 % 996,2 hPa 0,0 l/m 0 min 0 min 0 W/m 6,4 km/h (2 Bft) 91,49 %
26.09.2022 22:38 10,7 C 10,0 C 6,7 C 96 % 996,2 hPa 0,0 l/m 0 min 0 min 0 W/m 6,4 km/h (2 Bft) 95,74 %
26.09.2022 22:40 10,7 C 10,0 C 6,7 C 97 % 996,1 hPa 0,0 l/m 0 min 0 min 0 W/m 6,4 km/h (2 Bft) 97,83 %
26.09.2022 22:42 10,7 C 10,0 C 6,7 C 97 % 996,2 hPa 0,0 l/m 0 min 0 min 0 W/m 6,4 km/h (2 Bft) 97,87 %
26.09.2022 22:44 10,7 C 10,0 C 6,7 C 97 % 996,2 hPa 0,0 l/m 0 min 0 min 0 W/m 3,2 km/h (1 Bft) 97,87 %
26.09.2022 22:46 10,7 C 10,0 C 6,7 C 97 % 996,2 hPa 0,0 l/m 0 min 0 min 0 W/m 16,1 km/h (3 Bft) 97,87 %
26.09.2022 22:48 10,7 C 10,0 C 6,7 C 97 % 996,2 hPa 0,0 l/m 0 min 0 min 0 W/m 6,4 km/h (2 Bft) 97,87 %
26.09.2022 22:50 10,7 C 10,0 C 6,7 C 97 % 996,2 hPa 0,0 l/m 0 min 0 min 0 W/m 9,7 km/h (2 Bft) 97,87 %
26.09.2022 22:52 10,7 C 10,0 C 6,7 C 97 % 996,2 hPa 0,0 l/m 0 min 0 min 0 W/m 12,9 km/h (3 Bft) 97,83 %
26.09.2022 22:54 10,7 C 10,0 C 6,7 C 97 % 996,2 hPa 0,0 l/m 0 min 0 min 0 W/m 12,9 km/h (3 Bft) 97,87 %
26.09.2022 22:56 10,7 C 10,0 C 6,7 C 97 % 996,1 hPa 0,0 l/m 0 min 0 min 0 W/m 6,4 km/h (2 Bft) 97,87 %
26.09.2022 22:58 10,7 C 10,0 C 6,7 C 97 % 996,1 hPa 0,0 l/m 0 min 0 min 0 W/m 6,4 km/h (2 Bft) 97,87 %
26.09.2022 23:00 10,7 C 10,0 C 6,7 C 97 % 996,1 hPa 0,0 l/m 0 min 0 min 0 W/m 16,1 km/h (3 Bft) 97,87 %
26.09.2022 23:02 10,7 C 10,0 C 6,7 C 97 % 996,1 hPa 0,0 l/m 0 min 0 min 0 W/m 12,9 km/h (3 Bft) 95,74 %
26.09.2022 23:04 10,7 C 10,0 C 6,7 C 97 % 996,1 hPa 0,0 l/m 0 min 0 min 0 W/m 9,7 km/h (2 Bft) 100,00 %
26.09.2022 23:06 10,7 C 10,0 C 6,7 C 97 % 996,1 hPa 0,0 l/m 0 min 0 min 0 W/m 9,7 km/h (2 Bft) 100,00 %
26.09.2022 23:08 10,7 C 10,0 C 6,7 C 97 % 996,1 hPa 0,0 l/m 0 min 0 min 0 W/m 9,7 km/h (2 Bft) 97,87 %
26.09.2022 23:10 10,7 C 10,0 C 6,7 C 97 % 996,1 hPa 0,0 l/m 0 min 0 min 0 W/m 6,4 km/h (2 Bft) 100,00 %
26.09.2022 23:12 10,7 C 10,0 C 6,7 C 97 % 996,1 hPa 0,0 l/m 0 min 0 min 0 W/m 16,1 km/h (3 Bft) 100,00 %
26.09.2022 23:14 10,7 C 10,0 C 7,2 C 97 % 996,1 hPa 0,0 l/m 0 min 0 min 0 W/m 16,1 km/h (3 Bft) 100,00 %
26.09.2022 23:16 10,7 C 10,0 C 7,2 C 97 % 996,1 hPa 0,0 l/m 0 min 0 min 0 W/m 6,4 km/h (2 Bft) 100,00 %
26.09.2022 23:18 10,8 C 10,0 C 7,2 C 97 % 996,1 hPa 0,0 l/m 0 min 0 min 0 W/m 12,9 km/h (3 Bft) 100,00 %
26.09.2022 23:20 10,8 C 10,0 C 6,7 C 97 % 996,1 hPa 0,0 l/m 0 min 0 min 0 W/m 25,7 km/h (4 Bft) 100,00 %
26.09.2022 23:22 10,8 C 10,0 C 7,2 C 97 % 996,1 hPa 0,0 l/m 0 min 0 min 0 W/m 6,4 km/h (2 Bft) 100,00 %
26.09.2022 23:24 10,7 C 10,0 C 7,2 C 97 % 996,1 hPa 0,0 l/m 0 min 0 min 0 W/m 12,9 km/h (3 Bft) 100,00 %
26.09.2022 23:26 10,8 C 10,0 C 7,2 C 97 % 996,1 hPa 0,0 l/m 0 min 0 min 0 W/m 6,4 km/h (2 Bft) 100,00 %
26.09.2022 23:28 10,8 C 10,0 C 7,2 C 97 % 996,1 hPa 0,0 l/m 0 min 0 min 0 W/m 12,9 km/h (3 Bft) 100,00 %
26.09.2022 23:30 10,8 C 10,0 C 7,2 C 97 % 996,2 hPa 0,0 l/m 0 min 0 min 0 W/m 22,5 km/h (4 Bft) 100,00 %
26.09.2022 23:32 10,8 C 10,0 C 7,2 C 97 % 996,1 hPa 0,0 l/m 0 min 0 min 0 W/m 9,7 km/h (2 Bft) 100,00 %
26.09.2022 23:34 10,8 C 10,0 C 7,2 C 97 % 996,1 hPa 0,0 l/m 0 min 0 min 0 W/m 9,7 km/h (2 Bft) 100,00 %
26.09.2022 23:36 10,8 C 10,0 C 7,2 C 97 % 996,1 hPa 0,2 l/m 0 min 2 min 0 W/m 12,9 km/h (3 Bft) 100,00 %
26.09.2022 23:38 10,8 C 10,0 C 7,2 C 97 % 996,0 hPa 0,0 l/m 0 min 2 min 0 W/m 12,9 km/h (3 Bft) 97,87 %
26.09.2022 23:40 10,8 C 10,0 C 7,2 C 97 % 996,0 hPa 0,0 l/m 0 min 2 min 0 W/m 9,7 km/h (2 Bft) 100,00 %
26.09.2022 23:42 10,8 C 10,0 C 7,2 C 97 % 996,0 hPa 0,0 l/m 0 min 2 min 0 W/m 6,4 km/h (2 Bft) 100,00 %
26.09.2022 23:44 10,8 C 10,0 C 7,2 C 97 % 996,0 hPa 0,0 l/m 0 min 2 min 0 W/m 12,9 km/h (3 Bft) 100,00 %
26.09.2022 23:46 10,8 C 10,0 C 7,2 C 97 % 996,0 hPa 0,2 l/m 0 min 2 min 0 W/m 6,4 km/h (2 Bft) 97,87 %
26.09.2022 23:48 10,8 C 10,0 C 7,2 C 97 % 996,0 hPa 0,0 l/m 0 min 2 min 0 W/m 6,4 km/h (2 Bft) 100,00 %
26.09.2022 23:50 10,8 C 10,0 C 7,2 C 97 % 996,0 hPa 0,0 l/m 0 min 2 min 0 W/m 19,3 km/h (3 Bft) 100,00 %
26.09.2022 23:52 10,8 C 10,0 C 7,2 C 97 % 996,0 hPa 0,0 l/m 0 min 2 min 0 W/m 6,4 km/h (2 Bft) 97,83 %
26.09.2022 23:54 10,8 C 10,0 C 7,2 C 97 % 996,1 hPa 0,0 l/m 0 min 2 min 0 W/m 12,9 km/h (3 Bft) 100,00 %
26.09.2022 23:56 10,8 C 10,0 C 7,2 C 97 % 996,0 hPa 0,0 l/m 0 min 2 min 0 W/m 12,9 km/h (3 Bft) 95,74 %
26.09.2022 23:58 10,8 C 10,0 C 7,2 C 97 % 996,0 hPa 0,0 l/m 0 min 2 min 0 W/m 6,4 km/h (2 Bft) 97,87 %
_ Min-Zeit 00:32 00:00 00:00 13:48 23:38 - - - - 00:00 00:02
Minimum _ 10,3 C 9,4 C 6,1 C 81 % 996,0 hPa - - - - 0,0 km/h (0 Bft) 9,52 %
_ Max-Zeit 13:54 13:24 13:22 21:34 00:00 09:22 00:00 09:06 13:30 18:26 00:32
Maximum _ 14,1 C 13,9 C 8,3 C 97 % 1011,9 hPa 0,2 l/m 0 min 2 min 265 W/m 54,7 km/h
S (7 Bft)
100,00 %
Durchschnitt _ 11,5 C 10,9 C 7,2 C 91 % 1002,7 hPa #3,6 l/m #0 min. #8:20 h 67 W/m 17,7 km/h (3 Bft) 97,41 %
© 2022 W. Hausmann